M I D A S
Marine Information and Data Acquisition System
Tripno 1504 of the Zeeleeuw from 2008-06-16 07:05:14 to 2008-06-16 11:18:40
Back to CruiseResearch ActivitiesStationsMapUnderway DataData graphs

EquipmentUnitsComment
TimeDGPSUTC
LatitudeDGPSDM.mWGS84
LongitudeDGPSDM.mWGS84
TemperatureSBE03/SBE38deg celciusITS90
ConductivitySBE21S/mITS90
SalinitySBE21 Practical Salinity Units
ChlorophylAChelsea fluorimeterg/lCalibrated in Aceton
Missing or incorrect values are displayed as -999
Sea surface data collected by the RV Zeeleeuw from 2008-06-16 07:05:52 to 2008-06-16 11:28:09
                                                                                    Next 1000 lines
Time Latitude Longitude Temperature Conductivity Salinity ChlorophylA
2008-06-16 07:06:02 51°13.623 2°56.047 18.9893 0.268951 1.60143 -1.697049
2008-06-16 07:06:07 51°13.623 2°56.048 18.9899 0.268334 1.597576 -1.697049
2008-06-16 07:06:12 51°13.623 2°56.048 18.9899 0.269569 1.605376 -1.697049
2008-06-16 07:06:17 51°13.624 2°56.048 18.9908 0.269054 1.602138 -1.731873
2008-06-16 07:06:22 51°13.624 2°56.048 18.9919 0.269157 1.602815 -1.731873
2008-06-16 07:06:27 51°13.624 2°56.048 18.9937 0.268848 1.600903 -1.697049
2008-06-16 07:06:32 51°13.624 2°56.048 18.995 0.268848 1.600903 -1.697049
2008-06-16 07:06:37 51°13.623 2°56.048 18.9966 0.268642 1.599608 -1.731873
2008-06-16 07:06:42 51°13.623 2°56.048 18.999 0.268436 1.598343 -1.731873
2008-06-16 07:06:47 51°13.623 2°56.048 19.0001 0.268334 1.597695 -1.697049
2008-06-16 07:06:52 51°13.623 2°56.048 19.0016 0.268334 1.597725 -1.697049
2008-06-16 07:06:57 51°13.623 2°56.048 19.0016 0.268539 1.59902 -1.731873
2008-06-16 07:07:02 51°13.623 2°56.048 19.0018 0.268539 1.59902 -1.731873
2008-06-16 07:07:07 51°13.623 2°56.048 19.0026 0.268436 1.598402 -1.731873
2008-06-16 07:07:12 51°13.623 2°56.048 19.0027 0.268539 1.59905 -1.697049
2008-06-16 07:07:17 51°13.623 2°56.048 19.0011 0.268539 1.59908 -1.731873
2008-06-16 07:07:22 51°13.623 2°56.048 18.9929 0.269672 1.606204 -1.697049
2008-06-16 07:07:27 51°13.623 2°56.047 18.9798 0.270495 1.611446 -1.731873
2008-06-16 07:07:32 51°13.623 2°56.045 18.9854 0.270495 1.611446 -1.731873
2008-06-16 07:07:37 51°13.624 2°56.043 18.9751 0.27101 1.614656 -1.697049
2008-06-16 07:07:42 51°13.625 2°56.039 18.9976 0.270804 1.61339 -1.697049
2008-06-16 07:07:47 51°13.626 2°56.035 19.0125 0.27101 1.614686 -1.697049
2008-06-16 07:07:52 51°13.628 2°56.031 19.006 0.271319 1.61666 -1.697049
2008-06-16 07:07:57 51°13.63 2°56.025 19.0076 0.271319 1.61666 -1.697049
2008-06-16 07:08:02 51°13.632 2°56.02 18.9929 0.271113 1.615364 -1.697049
2008-06-16 07:08:07 51°13.634 2°56.013 18.9916 0.271525 1.617987 -1.697049
2008-06-16 07:08:12 51°13.636 2°56.006 18.9917 0.27101 1.614747 -1.697049
2008-06-16 07:08:17 51°13.638 2°55.999 19.0001 0.27276 1.625796 -1.697049
2008-06-16 07:08:22 51°13.641 2°55.991 19.0136 0.27276 1.625796 -1.697049
2008-06-16 07:08:27 51°13.643 2°55.983 19.0049 0.272554 1.624529 -1.731873
2008-06-16 07:08:32 51°13.645 2°55.974 18.9993 0.272554 1.624529 -1.731873
2008-06-16 07:08:37 51°13.647 2°55.965 19.0032 0.273069 1.627771 -1.697049
2008-06-16 07:08:42 51°13.649 2°55.956 19.0129 0.272451 1.623912 -1.697049
2008-06-16 07:08:47 51°13.65 2°55.947 18.9988 0.272554 1.62456 -1.697049
2008-06-16 07:08:52 51°13.652 2°55.937 18.9938 0.271937 1.620701 -1.731873
2008-06-16 07:08:57 51°13.655 2°55.927 19.0078 0.272039 1.621349 -1.731873
2008-06-16 07:09:02 51°13.658 2°55.916 19.0131 0.272039 1.621349 -1.731873
2008-06-16 07:09:07 51°13.66 2°55.906 19.0103 0.271525 1.618138 -1.731873
2008-06-16 07:09:12 51°13.663 2°55.896 19.0139 0.268642 1.599997 -1.697049
2008-06-16 07:09:17 51°13.665 2°55.886 19.0145 0.269157 1.603235 -1.731873
2008-06-16 07:09:22 51°13.667 2°55.877 19.0147 0.268642 1.600027 -1.731873
2008-06-16 07:09:27 51°13.67 2°55.867 19.0126 0.268642 1.600027 -1.731873
2008-06-16 07:09:32 51°13.672 2°55.858 19.0139 0.269672 1.606534 -1.731873
2008-06-16 07:09:37 51°13.674 2°55.849 19.0136 0.268951 1.602 -1.697049
2008-06-16 07:09:42 51°13.675 2°55.841 19.0147 0.269054 1.602678 -1.731873
2008-06-16 07:09:47 51°13.677 2°55.833 19.0156 0.268539 1.599439 -1.697049
2008-06-16 07:09:52 51°13.678 2°55.825 19.0154 0.268745 1.600764 -1.697049
2008-06-16 07:09:57 51°13.68 2°55.817 19.0173 0.268745 1.600764 -1.697049
2008-06-16 07:10:02 51°13.681 2°55.81 19.0186 0.268745 1.600794 -1.697049
2008-06-16 07:10:07 51°13.682 2°55.803 19.0195 0.268951 1.60209 -1.697049
2008-06-16 07:10:11 51°13.683 2°55.798 19.0181 0.268951 1.60212 -1.697049
2008-06-16 07:10:16 51°13.684 2°55.792 19.0147 0.268951 1.60212 -1.697049
2008-06-16 07:10:22 51°13.684 2°55.785 19.0146 0.268231 1.597616 -1.731873
2008-06-16 07:10:26 51°13.685 2°55.781 19.0158 0.268334 1.598263 -1.697049
2008-06-16 07:10:31 51°13.686 2°55.776 19.0164 0.268334 1.598263 -1.697049
2008-06-16 07:10:36 51°13.686 2°55.772 19.0166 0.268745 1.600854 -1.697049
2008-06-16 07:10:40 51°13.686 2°55.769 19.0182 0.268539 1.599589 -1.697049
2008-06-16 07:10:46 51°13.687 2°55.765 19.0213 0.268951 1.60218 -1.697049
2008-06-16 07:10:50 51°13.687 2°55.763 19.0236 0.268334 1.598323 -1.697049
2008-06-16 07:10:55 51°13.688 2°55.761 19.0239 0.26751 1.593172 -1.731873
2008-06-16 07:11:00 51°13.688 2°55.759 19.0237 0.26751 1.593172 -1.731873
2008-06-16 07:11:05 51°13.689 2°55.759 19.025 0.266584 1.587344 -1.697049
2008-06-16 07:11:10 51°13.69 2°55.759 19.0267 0.266275 1.585461 -1.697049
2008-06-16 07:11:15 51°13.691 2°55.76 19.0313 0.265142 1.578341 -1.697049
2008-06-16 07:11:19 51°13.692 2°55.761 19.0352 0.264422 1.57387 -1.731873
2008-06-16 07:11:24 51°13.693 2°55.764 19.0332 0.264422 1.57387 -1.731873
2008-06-16 07:11:27 51°13.694 2°55.765 19.03 0.266584 1.587522 -1.731873
2008-06-16 07:11:34 51°13.697 2°55.768 19.0191 0.269672 1.607016 -1.697049
2008-06-16 07:11:39 51°13.698 2°55.769 19.019 0.271834 1.620659 -1.697049
2008-06-16 07:11:43 51°13.699 2°55.769 19.0137 0.273275 1.629769 -1.731873
2008-06-16 07:11:48 51°13.699 2°55.769 19.0139 0.272863 1.627175 -1.697049
2008-06-16 07:11:54 51°13.699 2°55.768 19.0186 0.273892 1.633662 -1.697049
2008-06-16 07:11:58 51°13.698 2°55.767 19.0314 0.273892 1.633662 -1.697049
2008-06-16 07:12:03 51°13.697 2°55.766 19.0205 0.269672 1.607076 -1.697049
2008-06-16 07:12:08 51°13.695 2°55.764 19.0295 0.270804 1.614176 -1.697049
2008-06-16 07:12:14 51°13.694 2°55.763 19.0275 0.268436 1.59924 -1.697049
2008-06-16 07:12:19 51°13.693 2°55.762 19.0298 0.265451 1.58046 -1.731873
2008-06-16 07:12:25 51°13.693 2°55.761 19.0311 0.264525 1.574605 -1.697049
2008-06-16 07:12:30 51°13.694 2°55.76 19.036 0.264525 1.574605 -1.697049
2008-06-16 07:12:36 51°13.696 2°55.759 19.0381 0.261951 1.558461 -1.731873
2008-06-16 07:12:42 51°13.699 2°55.755 19.0435 0.257731 1.53196 -1.697049
2008-06-16 07:12:47 51°13.703 2°55.752 19.0427 0.255569 1.518455 -1.731873
2008-06-16 07:12:52 51°13.709 2°55.748 19.0398 0.254025 1.508829 -1.697049
2008-06-16 07:12:57 51°13.715 2°55.743 19.0369 0.25876 1.538536 -1.697049
2008-06-16 07:13:02 51°13.722 2°55.737 19.0376 0.25876 1.538536 -1.697049
2008-06-16 07:13:06 51°13.727 2°55.731 19.0246 0.258245 1.535334 -1.697049
2008-06-16 07:13:11 51°13.735 2°55.724 19.0218 0.260613 1.5502 -1.731873
2008-06-16 07:13:16 51°13.743 2°55.716 19.0193 0.262672 1.563135 -1.697049
2008-06-16 07:13:21 51°13.752 2°55.708 19.0187 0.261745 1.557313 -1.697049
2008-06-16 07:13:26 51°13.761 2°55.699 19.0122 0.261745 1.557313 -1.697049
2008-06-16 07:13:31 51°13.77 2°55.691 19.0017 0.263289 1.567017 -1.697049
2008-06-16 07:13:36 51°13.779 2°55.682 19.0005 0.264936 1.577342 -1.697049
2008-06-16 07:13:40 51°13.787 2°55.676 19.0083 0.264216 1.572811 -1.697049
2008-06-16 07:13:45 51°13.797 2°55.667 19.0165 0.265451 1.580578 -1.697049
2008-06-16 07:13:50 51°13.807 2°55.659 19.0171 0.264731 1.576077 -1.697049
2008-06-16 07:13:55 51°13.817 2°55.65 19.0047 0.267613 1.594207 -1.731873
2008-06-16 07:14:00 51°13.827 2°55.643 19.022 0.267613 1.594207 -1.731873
2008-06-16 07:14:05 51°13.838 2°55.634 19.0162 0.264422 1.574164 -1.697049
2008-06-16 07:14:10 51°13.848 2°55.626 19.0266 0.266892 1.589703 -1.697049
2008-06-16 07:14:14 51°13.857 2°55.619 19.0325 0.266378 1.586524 -1.731873
2008-06-16 07:14:19 51°13.867 2°55.611 19.0346 0.265863 1.583287 -1.697049
2008-06-16 07:14:24 51°13.878 2°55.602 19.0246 0.267098 1.591088 -1.697049
2008-06-16 07:14:29 51°13.889 2°55.593 19.0229 0.267098 1.591088 -1.697049
2008-06-16 07:14:34 51°13.9 2°55.585 19.0277 0.267304 1.592413 -1.697049
2008-06-16 07:14:38 51°13.908 2°55.578 19.0235 0.266995 1.5905 -1.697049
2008-06-16 07:14:43 51°13.919 2°55.569 19.0262 0.267613 1.594386 -1.697049
2008-06-16 07:14:48 51°13.93 2°55.56 19.0279 0.267716 1.595034 -1.697049
2008-06-16 07:14:53 51°13.941 2°55.551 19.0323 0.267716 1.595034 -1.697049
2008-06-16 07:14:58 51°13.952 2°55.543 19.0392 0.267201 1.591825 -1.697049
2008-06-16 07:15:03 51°13.963 2°55.534 19.0394 0.267304 1.592503 -1.731873
2008-06-16 07:15:08 51°13.974 2°55.525 19.0414 0.268436 1.59963 -1.731873
2008-06-16 07:15:14 51°13.987 2°55.515 19.0445 0.268334 1.599012 -1.697049
2008-06-16 07:15:18 51°13.996 2°55.508 19.0462 0.266995 1.590619 -1.697049
2008-06-16 07:15:23 51°14.007 2°55.5 19.0341 0.266995 1.590619 -1.697049
2008-06-16 07:15:28 51°14.018 2°55.491 19.0518 0.268539 1.600367 -1.697049
2008-06-16 07:15:33 51°14.028 2°55.483 19.064 0.267819 1.595861 -1.697049
2008-06-16 07:15:38 51°14.04 2°55.475 19.0535 0.268128 1.597805 -1.731873
2008-06-16 07:15:43 51°14.05 2°55.466 19.0616 0.268334 1.599101 -1.697049
2008-06-16 07:15:48 51°14.061 2°55.457 19.0626 0.268334 1.599101 -1.697049
2008-06-16 07:15:54 51°14.074 2°55.447 19.0545 0.267407 1.5933 -1.731873
2008-06-16 07:15:58 51°14.083 2°55.44 19.0423 0.267407 1.5933 -1.731873
2008-06-16 07:16:03 51°14.094 2°55.431 19.0611 0.268025 1.597187 -1.731873
2008-06-16 07:16:08 51°14.105 2°55.422 19.0606 0.269363 1.605613 -1.697049
2008-06-16 07:16:14 51°14.118 2°55.412 19.0592 0.267304 1.592682 -1.731873
2008-06-16 07:16:18 51°14.126 2°55.404 19.063 0.267922 1.596569 -1.697049
2008-06-16 07:16:24 51°14.139 2°55.393 19.0556 0.267407 1.593359 -1.697049
2008-06-16 07:16:29 51°14.15 2°55.384 19.0592 0.267407 1.593359 -1.697049
2008-06-16 07:16:34 51°14.16 2°55.374 19.0582 0.267716 1.595333 -1.697049
2008-06-16 07:16:39 51°14.171 2°55.364 19.0642 0.268128 1.597925 -1.697049
2008-06-16 07:16:45 51°14.184 2°55.351 19.066 0.266789 1.589532 -1.697049
2008-06-16 07:16:50 51°14.194 2°55.341 19.0697 0.266584 1.588236 -1.697049
2008-06-16 07:16:55 51°14.205 2°55.329 19.0658 0.266584 1.588236 -1.697049
2008-06-16 07:17:01 51°14.217 2°55.314 19.0653 0.265451 1.581141 -1.697049
2008-06-16 07:17:06 51°14.227 2°55.301 19.062 0.267613 1.594775 -1.731873
2008-06-16 07:17:11 51°14.237 2°55.288 19.065 0.265039 1.57858 -1.697049
2008-06-16 07:17:16 51°14.247 2°55.274 19.0676 0.264216 1.57343 -1.697049
2008-06-16 07:17:21 51°14.256 2°55.26 19.0565 0.263804 1.57084 -1.697049
2008-06-16 07:17:26 51°14.266 2°55.245 19.052 0.268642 1.601315 -1.697049
2008-06-16 07:17:31 51°14.275 2°55.23 19.0599 0.268642 1.601315 -1.697049
2008-06-16 07:17:36 51°14.284 2°55.214 19.0514 0.265245 1.579934 -1.697049
2008-06-16 07:17:41 51°14.293 2°55.197 19.0444 0.261539 1.556661 -1.697049
2008-06-16 07:17:46 51°14.302 2°55.181 19.0424 0.265039 1.578669 -1.731873
2008-06-16 07:17:51 51°14.31 2°55.164 19.0322 0.269054 1.603938 -1.697049
2008-06-16 07:17:55 51°14.317 2°55.151 19.0423 0.255157 1.516611 -1.697049
2008-06-16 07:18:00 51°14.325 2°55.134 19.0471 0.255157 1.516611 -1.697049
2008-06-16 07:18:05 51°14.333 2°55.116 19.0481 0.255569 1.519195 -1.697049
2008-06-16 07:18:10 51°14.341 2°55.097 19.0424 0.257113 1.528914 -1.697049
2008-06-16 07:18:15 51°14.348 2°55.077 19.0446 0.266995 1.591036 -1.697049
2008-06-16 07:18:20 51°14.355 2°55.057 19.0682 0.256186 1.523128 -1.697049
2008-06-16 07:18:25 51°14.361 2°55.035 19.0771 0.256186 1.523128 -1.697049
2008-06-16 07:18:30 51°14.365 2°55.013 19.0831 0.257731 1.53285 -1.697049
2008-06-16 07:18:34 51°14.368 2°54.995 19.101 0.257113 1.529 -1.697049
2008-06-16 07:18:39 51°14.371 2°54.971 19.0911 0.256495 1.525152 -1.697049
2008-06-16 07:18:44 51°14.374 2°54.947 19.096 0.251245 1.492193 -1.697049
2008-06-16 07:18:49 51°14.375 2°54.922 19.0915 0.254642 1.513523 -1.697049
2008-06-16 07:18:54 51°14.377 2°54.897 19.0782 0.254642 1.513523 -1.697049
2008-06-16 07:18:59 51°14.378 2°54.871 19.0603 0.254745 1.514169 -1.731873
2008-06-16 07:19:03 51°14.378 2°54.851 19.0883 0.259789 1.545838 -1.697049
2008-06-16 07:19:08 51°14.379 2°54.825 19.0568 0.263495 1.569133 -1.697049
2008-06-16 07:19:13 51°14.38 2°54.798 19.0417 0.258142 1.535493 -1.697049
2008-06-16 07:19:18 51°14.38 2°54.772 19.0625 0.257113 1.529029 -1.697049
2008-06-16 07:19:23 51°14.381 2°54.746 19.0532 0.266789 1.589889 -1.697049
2008-06-16 07:19:28 51°14.38 2°54.719 19.0689 0.266789 1.589889 -1.697049
2008-06-16 07:19:33 51°14.379 2°54.692 19.0514 0.25526 1.517427 -1.697049
2008-06-16 07:19:38 51°14.377 2°54.664 19.0576 0.261334 1.555571 -1.697049
2008-06-16 07:19:43 51°14.376 2°54.637 19.0491 0.259378 1.543309 -1.731873
2008-06-16 07:19:48 51°14.374 2°54.609 19.061 0.264628 1.576315 -1.697049
2008-06-16 07:19:53 51°14.372 2°54.582 19.0922 0.256598 1.525855 -1.697049
2008-06-16 07:19:58 51°14.371 2°54.554 19.0895 0.256598 1.525855 -1.697049
2008-06-16 07:20:03 51°14.367 2°54.527 19.0778 0.259686 1.545279 -1.697049
2008-06-16 07:20:08 51°14.363 2°54.5 19.0973 0.266995 1.591245 -1.697049
2008-06-16 07:20:14 51°14.357 2°54.468 19.0753 0.264216 1.573783 -1.697049
2008-06-16 07:20:18 51°14.353 2°54.446 19.0674 0.260098 1.547924 -1.697049
2008-06-16 07:20:23 51°14.346 2°54.42 19.0636 0.260098 1.547924 -1.697049
2008-06-16 07:20:28 51°14.339 2°54.394 19.0345 0.252481 1.500105 -1.697049
2008-06-16 07:20:34 51°14.331 2°54.363 19.0716 0.30735 1.846763 -1.731873
2008-06-16 07:20:38 51°14.325 2°54.342 19.0734 0.440477 2.70565 -1.697049
2008-06-16 07:20:43 51°14.319 2°54.316 19.0586 0.346472 2.096826 -1.697049
2008-06-16 07:20:48 51°14.312 2°54.29 19.0889 0.377153 2.294358 -1.697049
2008-06-16 07:20:54 51°14.305 2°54.257 19.085 0.424723 2.602995 -1.697049
2008-06-16 07:20:58 51°14.3 2°54.236 19.0952 0.424723 2.602995 -1.697049
2008-06-16 07:21:03 51°14.294 2°54.209 19.08 0.395172 2.410959 -1.697049
2008-06-16 07:21:07 51°14.289 2°54.188 18.9025 0.392597 2.394327 -1.697049
2008-06-16 07:21:13 51°14.282 2°54.155 18.9356 0.263289 1.568074 -1.697049
2008-06-16 07:21:18 51°14.276 2°54.128 18.9589 0.258142 1.535637 -1.697049
2008-06-16 07:21:23 51°14.271 2°54.101 18.974 0.307247 1.846316 -1.697049
2008-06-16 07:21:28 51°14.265 2°54.074 18.9789 0.307247 1.846316 -1.697049
2008-06-16 07:21:33 51°14.259 2°54.047 18.9882 0.407012 2.487825 -1.697049
2008-06-16 07:21:38 51°14.253 2°54.02 18.9939 0.401349 2.451155 -1.697049
2008-06-16 07:21:43 51°14.247 2°53.993 18.9975 0.365622 2.220318 -1.697049
2008-06-16 07:21:48 51°14.241 2°53.966 19.0017 0.340397 2.05869 -1.731873
2008-06-16 07:21:54 51°14.234 2°53.933 18.9965 0.382919 2.332882 -1.697049
2008-06-16 07:21:58 51°14.229 2°53.911 19 0.382919 2.332882 -1.697049
2008-06-16 07:22:03 51°14.223 2°53.884 19.0059 0.385287 2.348203 -1.697049
2008-06-16 07:22:08 51°14.217 2°53.857 19.0134 0.380242 2.315397 -1.697049
2008-06-16 07:22:13 51°14.211 2°53.83 19.0095 0.380036 2.313892 -1.697049
2008-06-16 07:22:18 51°14.205 2°53.803 19.022 0.360268 2.186212 -1.697049
2008-06-16 07:22:23 51°14.199 2°53.776 19.0215 0.364592 2.213893 -1.697049
2008-06-16 07:22:27 51°14.194 2°53.754 19.009 0.364592 2.213893 -1.697049
2008-06-16 07:22:33 51°14.186 2°53.722 19.0302 0.421531 2.582639 -1.697049
2008-06-16 07:22:38 51°14.181 2°53.694 19.0063 0.316615 1.906179 -1.697049
2008-06-16 07:22:43 51°14.174 2°53.667 19.0287 0.366445 2.225667 -1.697049
2008-06-16 07:22:48 51°14.168 2°53.64 19.0158 0.445935 2.741948 -1.731873
2008-06-16 07:22:54 51°14.161 2°53.608 19.0256 0.315586 1.899724 -1.697049
2008-06-16 07:22:58 51°14.156 2°53.586 19.0187 0.315586 1.899724 -1.697049
2008-06-16 07:23:03 51°14.15 2°53.559 19.0275 0.327734 1.977332 -1.697049
2008-06-16 07:23:07 51°14.144 2°53.538 19.023 0.421016 2.579528 -1.697049
2008-06-16 07:23:13 51°14.137 2°53.505 19.0328 0.293967 1.762484 -1.731873
2008-06-16 07:23:18 51°14.13 2°53.479 19.0301 0.461587 2.844969 -1.697049
2008-06-16 07:23:23 51°14.124 2°53.451 19.0368 0.373961 2.274439 -1.697049
2008-06-16 07:23:28 51°14.118 2°53.424 19.0424 0.373961 2.274439 -1.697049
2008-06-16 07:23:33 51°14.112 2°53.397 19.0462 0.400629 2.446985 -1.697049
2008-06-16 07:23:38 51°14.106 2°53.37 19.0352 0.417103 2.554003 -1.697049
2008-06-16 07:23:43 51°14.099 2°53.343 19.048 0.353679 2.143706 -1.697049
2008-06-16 07:23:48 51°14.093 2°53.316 19.0435 0.396716 2.421515 -1.697049
2008-06-16 07:23:53 51°14.087 2°53.288 19.0483 0.372932 2.267751 -1.697049
2008-06-16 07:23:58 51°14.08 2°53.261 19.0474 0.372932 2.267751 -1.697049
2008-06-16 07:24:03 51°14.073 2°53.234 19.0633 0.438109 2.691089 -1.697049
2008-06-16 07:24:07 51°14.069 2°53.213 19.0335 0.30385 1.825163 -1.697049
2008-06-16 07:24:13 51°14.06 2°53.181 19.0571 0.368402 2.238486 -1.697049
2008-06-16 07:24:18 51°14.053 2°53.154 19.0435 0.304467 1.82909 -1.697049
2008-06-16 07:24:23 51°14.045 2°53.128 19.0516 0.415765 2.545387 -1.697049
2008-06-16 07:24:28 51°14.039 2°53.101 19.0278 0.415765 2.545387 -1.697049
2008-06-16 07:24:34 51°14.03 2°53.069 19.0548 0.651916 4.112139 -1.697049
2008-06-16 07:24:38 51°14.025 2°53.048 19.0497 0.527288 3.27827 -1.697049
2008-06-16 07:24:43 51°14.019 2°53.021 19.0571 0.315483 1.899317 -1.697049
2008-06-16 07:24:48 51°14.012 2°52.994 19.0555 0.785534 5.021486 -1.697049
2008-06-16 07:24:53 51°14.006 2°52.966 19.0546 0.380036 2.313587 -1.697049
2008-06-16 07:24:58 51°13.999 2°52.94 19.0447 0.380036 2.313587 -1.697049
2008-06-16 07:25:03 51°13.993 2°52.912 19.0555 0.408969 2.501145 -1.697049
2008-06-16 07:25:08 51°13.986 2°52.885 19.0711 0.974737 6.331975 -1.697049
2008-06-16 07:25:13 51°13.98 2°52.858 19.0488 0.295099 1.769666 -1.697049
2008-06-16 07:25:18 51°13.973 2°52.831 19.071 0.527185 3.277649 -1.697049
2008-06-16 07:25:23 51°13.967 2°52.803 19.0649 0.477651 2.950458 -1.697049
2008-06-16 07:25:28 51°13.961 2°52.776 19.0775 0.477651 2.950458 -1.697049
2008-06-16 07:25:33 51°13.954 2°52.749 19.0695 0.402997 2.462494 -1.697049
2008-06-16 07:25:38 51°13.948 2°52.722 19.0755 0.434917 2.670338 -1.697049
2008-06-16 07:25:43 51°13.942 2°52.695 19.0784 0.447788 2.754491 -1.697049
2008-06-16 07:25:48 51°13.935 2°52.667 19.0871 0.384463 2.342432 -1.697049
2008-06-16 07:25:53 51°13.929 2°52.64 19.0696 0.384463 2.342432 -1.697049
2008-06-16 07:25:58 51°13.923 2°52.613 19.0723 0.450363 2.771501 -1.731873
2008-06-16 07:26:03 51°13.916 2°52.586 19.0859 1.092146 7.158822 -1.697049
2008-06-16 07:26:07 51°13.912 2°52.563 19.0738 0.234055 1.385843 -1.731873
2008-06-16 07:26:13 51°13.902 2°52.532 19.0868 1.004113 6.539541 -1.697049
2008-06-16 07:26:18 51°13.897 2°52.504 19.0711 0.39198 2.391225 -1.697049
2008-06-16 07:26:23 51°13.888 2°52.479 19.0943 0.3126 1.881091 -1.697049
2008-06-16 07:26:28 51°13.881 2°52.452 19.0791 0.3126 1.881091 -1.697049
2008-06-16 07:26:33 51°13.872 2°52.427 19.0999 0.49248 3.048192 -1.697049
2008-06-16 07:26:38 51°13.864 2°52.401 19.0968 0.390744 2.383087 -1.731873
2008-06-16 07:26:43 51°13.855 2°52.375 19.0828 0.393112 2.398564 -1.697049
2008-06-16 07:26:48 51°13.846 2°52.35 19.1001 0.401967 2.456087 -1.697049
2008-06-16 07:26:53 51°13.838 2°52.324 19.0909 0.450671 2.773838 -1.731873
2008-06-16 07:26:58 51°13.829 2°52.299 19.1087 0.450671 2.773838 -1.731873
2008-06-16 07:27:03 51°13.82 2°52.273 19.1075 0.416691 2.552138 -1.731873
2008-06-16 07:27:08 51°13.811 2°52.248 19.1144 0.402894 2.462613 -1.697049
2008-06-16 07:27:13 51°13.802 2°52.223 19.1042 0.429048 2.632922 -1.731873
2008-06-16 07:27:18 51°13.792 2°52.198 19.1178 0.300761 1.806319 -1.697049
2008-06-16 07:27:23 51°13.783 2°52.174 19.0956 0.300761 1.806319 -1.697049
2008-06-16 07:27:28 51°13.773 2°52.149 19.1235 1.078435 7.064095 -1.731873
2008-06-16 07:27:33 51°13.763 2°52.125 19.093 0.261642 1.558972 -1.697049
2008-06-16 07:27:38 51°13.753 2°52.101 19.1193 0.5277 3.282425 -1.697049
2008-06-16 07:27:43 51°13.744 2°52.075 19.0996 0.503499 3.122104 -1.697049
2008-06-16 07:27:48 51°13.735 2°52.05 19.1221 0.397746 2.429379 -1.697049
2008-06-16 07:27:53 51°13.727 2°52.025 19.1015 0.613495 3.855028 -1.697049
2008-06-16 07:27:58 51°13.718 2°51.999 19.1286 0.613495 3.855028 -1.697049
2008-06-16 07:28:03 51°13.71 2°51.973 19.1124 0.365725 2.222193 -1.697049
2008-06-16 07:28:07 51°13.703 2°51.953 19.139 0.725675 4.614344 -1.697049
2008-06-16 07:28:13 51°13.694 2°51.921 19.1205 0.435432 2.674657 -1.697049
2008-06-16 07:28:18 51°13.685 2°51.896 19.1339 0.476106 2.941516 -1.697049
2008-06-16 07:28:23 51°13.677 2°51.869 19.1354 0.501851 3.111392 -1.697049
2008-06-16 07:28:28 51°13.669 2°51.843 19.1462 0.501851 3.111392 -1.697049
2008-06-16 07:28:33 51°13.662 2°51.816 19.1355 0.343795 2.081376 -1.731873
2008-06-16 07:28:38 51°13.653 2°51.791 19.1515 0.686837 4.350643 -1.697049
2008-06-16 07:28:43 51°13.645 2°51.765 19.1393 0.286863 1.718348 -1.731873
2008-06-16 07:28:48 51°13.636 2°51.74 19.1495 1.049777 6.862853 -1.697049
2008-06-16 07:28:53 51°13.628 2°51.714 19.1541 0.327837 1.979216 -1.697049
2008-06-16 07:28:58 51°13.619 2°51.689 19.1382 0.327837 1.979216 -1.697049
2008-06-16 07:29:03 51°13.609 2°51.664 19.1608 0.483933 2.993385 -1.697049
2008-06-16 07:29:08 51°13.6 2°51.639 19.1443 0.319704 1.927104 -1.697049
2008-06-16 07:29:13 51°13.59 2°51.615 19.161 0.480225 2.968741 -1.697049
2008-06-16 07:29:18 51°13.581 2°51.59 19.1481 0.339368 2.052863 -1.731873
2008-06-16 07:29:23 51°13.571 2°51.566 19.1669 0.339368 2.052863 -1.731873
2008-06-16 07:29:28 51°13.562 2°51.541 19.1544 0.428636 2.630779 -1.731873
2008-06-16 07:29:33 51°13.551 2°51.518 19.1582 0.507927 3.151739 -1.731873
2008-06-16 07:29:38 51°13.542 2°51.493 19.1604 0.430695 2.644272 -1.697049
2008-06-16 07:29:43 51°13.532 2°51.469 19.1642 0.430283 2.641682 -1.697049
2008-06-16 07:29:47 51°13.524 2°51.449 19.1757 0.442846 2.723743 -1.697049
2008-06-16 07:29:53 51°13.513 2°51.42 19.1613 0.441095 2.712291 -1.697049
2008-06-16 07:29:58 51°13.503 2°51.395 19.1761 0.441095 2.712291 -1.697049
2008-06-16 07:30:03 51°13.494 2°51.371 19.1579 0.368608 2.241247 -1.731873
2008-06-16 07:30:07 51°13.485 2°51.351 19.1822 0.44439 2.7338 -1.697049
2008-06-16 07:30:13 51°13.474 2°51.322 19.1866 0.398672 2.435897 -1.697049
2008-06-16 07:30:18 51°13.465 2°51.297 19.1538 0.728972 4.637777 -1.731873
2008-06-16 07:30:23 51°13.454 2°51.273 19.1966 0.214703 1.265835 -1.697049
2008-06-16 07:30:28 51°13.445 2°51.249 19.1569 0.214703 1.265835 -1.697049
2008-06-16 07:30:33 51°13.435 2°51.225 19.2015 0.865082 5.573243 -1.697049
2008-06-16 07:30:38 51°13.426 2°51.2 19.1479 0.197719 1.160656 -1.697049
2008-06-16 07:30:43 51°13.415 2°51.177 19.1819 1.720773 11.723729 -1.731873
2008-06-16 07:30:48 51°13.407 2°51.151 19.1837 0.249907 1.486172 -1.697049
2008-06-16 07:30:53 51°13.396 2°51.128 19.174 0.249907 1.486172 -1.697049
2008-06-16 07:30:58 51°13.387 2°51.103 19.1835 1.675256 11.390998 -1.697049
2008-06-16 07:31:03 51°13.377 2°51.079 19.1869 0.74082 4.721026 -1.697049
2008-06-16 07:31:08 51°13.368 2°51.054 19.1855 0.940725 6.099591 -1.731873
2008-06-16 07:31:13 51°13.358 2°51.03 19.1956 1.380781 9.224925 -1.697049
2008-06-16 07:31:18 51°13.35 2°51.004 19.1874 1.26011 8.353268 -1.697049
2008-06-16 07:31:23 51°13.34 2°50.979 19.1989 1.26011 8.353268 -1.697049
2008-06-16 07:31:28 51°13.332 2°50.954 19.1941 0.639452 4.028243 -1.731873
2008-06-16 07:31:33 51°13.323 2°50.928 19.2081 1.329623 8.895377 -1.697049
2008-06-16 07:31:38 51°13.314 2°50.903 19.1908 1.147614 7.592428 -1.697049
2008-06-16 07:31:43 51°13.305 2°50.877 19.2253 0.854469 5.520081 -1.697049
2008-06-16 07:31:48 51°13.297 2°50.852 19.1999 1.374387 9.220656 -1.731873
2008-06-16 07:31:53 51°13.288 2°50.827 19.2135 0.719803 4.594496 -1.731873
2008-06-16 07:31:58 51°13.279 2°50.802 19.2164 0.719803 4.594496 -1.731873
2008-06-16 07:32:03 51°13.269 2°50.777 19.21 0.887341 5.745674 -1.697049
2008-06-16 07:32:07 51°13.262 2°50.757 19.2365 1.210613 8.015049 -1.697049
2008-06-16 07:32:13 51°13.251 2°50.727 19.2187 1.204941 7.966329 -1.697049
2008-06-16 07:32:18 51°13.242 2°50.702 19.2211 0.861785 5.556203 -1.697049
2008-06-16 07:32:23 51°13.233 2°50.677 19.2184 0.990404 6.454686 -1.697049
2008-06-16 07:32:28 51°13.224 2°50.651 19.2157 0.990404 6.454686 -1.697049
2008-06-16 07:32:33 51°13.215 2°50.626 19.2362 1.182875 7.81392 -1.697049
2008-06-16 07:32:38 51°13.207 2°50.6 19.2252 1.343958 8.967599 -1.697049
2008-06-16 07:32:43 51°13.198 2°50.574 19.2316 0.845503 5.440421 -1.697049
2008-06-16 07:32:47 51°13.192 2°50.554 19.2272 1.426169 9.565014 -1.731873
2008-06-16 07:32:53 51°13.182 2°50.523 19.2443 0.850346 5.476081 -1.697049
2008-06-16 07:32:58 51°13.173 2°50.498 19.225 0.850346 5.476081 -1.697049
2008-06-16 07:33:03 51°13.164 2°50.471 19.2529 1.154315 7.616491 -1.697049
2008-06-16 07:33:08 51°13.156 2°50.445 19.2294 1.120291 7.372546 -1.697049
2008-06-16 07:33:13 51°13.147 2°50.42 19.2569 0.682407 4.330674 -1.697049
2008-06-16 07:33:18 51°13.139 2°50.394 19.2397 1.506949 10.16632 -1.697049
2008-06-16 07:33:23 51°13.13 2°50.368 19.2666 0.683644 4.338909 -1.697049
2008-06-16 07:33:28 51°13.122 2°50.342 19.2439 0.683644 4.338909 -1.697049
2008-06-16 07:33:33 51°13.113 2°50.317 19.2595 1.595688 10.816179 -1.697049
2008-06-16 07:33:38 51°13.105 2°50.29 19.2521 0.68797 4.367739 -1.697049
2008-06-16 07:33:43 51°13.096 2°50.265 19.2614 1.137922 7.502375 -1.731873
2008-06-16 07:33:48 51°13.088 2°50.24 19.268 0.942787 6.126619 -1.731873
2008-06-16 07:33:53 51°13.08 2°50.214 19.2611 1.218656 8.080879 -1.731873
2008-06-16 07:33:58 51°13.071 2°50.188 19.2721 1.218656 8.080879 -1.731873
2008-06-16 07:34:03 51°13.062 2°50.163 19.2699 1.230618 8.167703 -1.731873
2008-06-16 07:34:08 51°13.054 2°50.137 19.2782 0.866937 5.600503 -1.697049
2008-06-16 07:34:13 51°13.045 2°50.112 19.2674 1.467538 9.884978 -1.697049
2008-06-16 07:34:18 51°13.036 2°50.087 19.2937 0.727942 4.644542 -1.697049
2008-06-16 07:34:23 51°13.028 2°50.061 19.2635 1.592799 10.808084 -1.697049
2008-06-16 07:34:28 51°13.019 2°50.036 19.2984 1.592799 10.808084 -1.697049
2008-06-16 07:34:33 51°13.01 2°50.011 19.2638 0.45891 2.838262 -1.697049
2008-06-16 07:34:38 51°13.001 2°49.986 19.2962 1.296206 8.649832 -1.697049
2008-06-16 07:34:43 51°12.992 2°49.961 19.268 0.820155 5.282566 -1.697049
2008-06-16 07:34:47 51°12.984 2°49.942 19.3017 1.020502 6.684083 -1.697049
2008-06-16 07:34:53 51°12.974 2°49.912 19.2879 1.020502 6.684083 -1.697049
2008-06-16 07:34:58 51°12.963 2°49.888 19.2954 1.147201 7.583267 -1.697049
2008-06-16 07:35:03 51°12.955 2°49.863 19.2978 0.684674 4.354575 -1.731873
2008-06-16 07:35:08 51°12.945 2°49.839 19.2902 0.952269 6.204848 -1.697049
2008-06-16 07:35:13 51°12.935 2°49.815 19.3192 0.734329 4.693847 -1.697049
2008-06-16 07:35:18 51°12.926 2°49.79 19.3071 1.661633 11.327656 -1.731873
2008-06-16 07:35:23 51°12.917 2°49.765 19.308 0.889506 5.766547 -1.697049
2008-06-16 07:35:28 51°12.907 2°49.741 19.3132 0.889506 5.766547 -1.697049
2008-06-16 07:35:33 51°12.899 2°49.716 19.3218 0.710119 4.528731 -1.697049
2008-06-16 07:35:38 51°12.889 2°49.691 19.3202 1.2168 8.083261 -1.697049
2008-06-16 07:35:43 51°12.88 2°49.666 19.3157 0.964431 6.290894 -1.697049
2008-06-16 07:35:48 51°12.871 2°49.642 19.29 1.154625 7.637702 -1.697049
2008-06-16 07:35:53 51°12.861 2°49.616 19.338 0.780383 5.010509 -1.697049
2008-06-16 07:35:58 51°12.853 2°49.59 19.3023 0.780383 5.010509 -1.697049
2008-06-16 07:36:03 51°12.843 2°49.566 19.3418 1.61416 10.976618 -1.697049
2008-06-16 07:36:08 51°12.836 2°49.539 19.306 0.377668 2.309541 -1.697049
2008-06-16 07:36:13 51°12.826 2°49.515 19.345 1.609 10.938946 -1.697049
2008-06-16 07:36:18 51°12.818 2°49.489 19.3322 0.567661 3.563815 -1.697049
2008-06-16 07:36:23 51°12.808 2°49.465 19.3414 1.234537 8.209864 -1.697049
2008-06-16 07:36:28 51°12.799 2°49.439 19.3457 1.234537 8.209864 -1.697049
2008-06-16 07:36:33 51°12.79 2°49.415 19.3499 0.789038 5.069673 -1.731873
2008-06-16 07:36:38 51°12.781 2°49.389 19.33 0.926709 6.025274 -1.697049
2008-06-16 07:36:43 51°12.771 2°49.365 19.3635 0.66644 4.230148 -1.697049
2008-06-16 07:36:47 51°12.765 2°49.344 19.31 1.686919 11.51309 -1.697049
2008-06-16 07:36:53 51°12.753 2°49.315 19.3698 0.345545 2.101307 -1.731873
2008-06-16 07:36:58 51°12.744 2°49.29 19.3237 0.345545 2.101307 -1.731873
2008-06-16 07:37:03 51°12.734 2°49.265 19.3632 1.548428 10.491141 -1.697049
2008-06-16 07:37:07 51°12.728 2°49.244 19.3198 0.901769 5.851619 -1.731873
2008-06-16 07:37:13 51°12.716 2°49.215 19.3756 0.770389 4.941894 -1.697049
2008-06-16 07:37:18 51°12.708 2°49.189 19.3507 1.682378 11.482044 -1.731873
2008-06-16 07:37:23 51°12.698 2°49.164 19.373 0.499998 3.112944 -1.731873
2008-06-16 07:37:28 51°12.69 2°49.138 19.3284 0.499998 3.112944 -1.731873
2008-06-16 07:37:33 51°12.679 2°49.115 19.3745 1.708078 11.674567 -1.697049
2008-06-16 07:37:38 51°12.672 2°49.088 19.3594 0.395893 2.428653 -1.697049
2008-06-16 07:37:43 51°12.661 2°49.064 19.3699 1.641715 11.187284 -1.731873
2008-06-16 07:37:47 51°12.654 2°49.044 19.3708 0.549225 3.442618 -1.697049
2008-06-16 07:37:53 51°12.643 2°49.014 19.3791 1.221441 8.121988 -1.697049
2008-06-16 07:37:58 51°12.634 2°48.989 19.3861 1.221441 8.121988 -1.697049
2008-06-16 07:38:03 51°12.624 2°48.964 19.3832 1.183495 7.849927 -1.697049
2008-06-16 07:38:08 51°12.615 2°48.939 19.3789 0.733505 4.691499 -1.697049
2008-06-16 07:38:13 51°12.606 2°48.914 19.3791 1.09225 7.197323 -1.697049
2008-06-16 07:38:18 51°12.597 2°48.889 19.3881 0.708368 4.518484 -1.697049
2008-06-16 07:38:23 51°12.588 2°48.864 19.3832 0.708368 4.518484 -1.697049
2008-06-16 07:38:28 51°12.579 2°48.839 19.3804 1.278881 8.533321 -1.697049
2008-06-16 07:38:33 51°12.57 2°48.813 19.3932 1.397699 9.39657 -1.697049
2008-06-16 07:38:38 51°12.562 2°48.787 19.3844 0.818919 5.281645 -1.697049
2008-06-16 07:38:43 51°12.554 2°48.762 19.3913 1.270424 8.479605 -1.697049
2008-06-16 07:38:47 51°12.547 2°48.741 19.4197 0.663041 4.214503 -1.697049
2008-06-16 07:38:53 51°12.537 2°48.71 19.403 1.679282 11.481001 -1.697049
2008-06-16 07:38:58 51°12.528 2°48.684 19.4186 1.679282 11.481001 -1.697049
2008-06-16 07:39:03 51°12.521 2°48.657 19.4082 0.647178 4.108888 -1.697049
2008-06-16 07:39:07 51°12.513 2°48.638 19.4231 1.212057 8.065982 -1.697049
2008-06-16 07:39:13 51°12.503 2°48.607 19.4066 1.006278 6.5986 -1.697049
2008-06-16 07:39:18 51°12.494 2°48.582 19.4337 0.58414 3.681821 -1.697049
2008-06-16 07:39:23 51°12.485 2°48.556 19.3994 1.678044 11.47224 -1.697049
2008-06-16 07:39:28 51°12.476 2°48.531 19.4392 1.678044 11.47224 -1.697049
2008-06-16 07:39:33 51°12.467 2°48.506 19.4109 0.492789 3.070961 -1.697049
2008-06-16 07:39:38 51°12.458 2°48.482 19.4286 0.905376 5.888106 -1.697049
2008-06-16 07:39:43 51°12.449 2°48.456 19.4295 1.323228 8.865494 -1.697049
2008-06-16 07:39:47 51°12.441 2°48.436 19.4412 0.564262 3.547296 -1.697049
2008-06-16 07:39:53 51°12.431 2°48.406 19.4373 0.564262 3.547296 -1.697049
2008-06-16 07:39:58 51°12.421 2°48.381 19.4354 1.375316 9.24291 -1.697049
2008-06-16 07:40:03 51°12.412 2°48.356 19.4362 0.763692 4.903569 -1.697049
2008-06-16 07:40:08 51°12.403 2°48.332 19.4225 0.71661 4.579794 -1.697049
2008-06-16 07:40:13 51°12.393 2°48.307 19.4575 0.969275 6.334439 -1.731873
2008-06-16 07:40:18 51°12.384 2°48.282 19.4365 0.988137 6.466878 -1.697049
2008-06-16 07:40:23 51°12.374 2°48.258 19.4449 0.902182 5.863532 -1.697049
2008-06-16 07:40:28 51°12.365 2°48.233 19.4466 0.902182 5.863532 -1.697049
2008-06-16 07:40:33 51°12.356 2°48.208 19.4616 0.905892 5.889127 -1.697049
2008-06-16 07:40:38 51°12.347 2°48.183 19.436 0.795426 5.12113 -1.697049
2008-06-16 07:40:43 51°12.337 2°48.159 19.4602 0.782238 5.02998 -1.697049
2008-06-16 07:40:48 51°12.328 2°48.134 19.4518 1.087817 7.17143 -1.697049
2008-06-16 07:40:53 51°12.319 2°48.109 19.4671 1.458666 9.848733 -1.697049
2008-06-16 07:40:58 51°12.31 2°48.083 19.4658 1.458666 9.848733 -1.697049
2008-06-16 07:41:03 51°12.301 2°48.058 19.4661 1.089467 7.183705 -1.697049
2008-06-16 07:41:07 51°12.294 2°48.037 19.4948 1.131633 7.484524 -1.697049
2008-06-16 07:41:13 51°12.285 2°48.007 19.4471 1.085962 7.158648 -1.697049
2008-06-16 07:41:18 51°12.276 2°47.982 19.4878 1.26764 8.460482 -1.697049
2008-06-16 07:41:23 51°12.268 2°47.955 19.4796 1.141428 7.55417 -1.697049
2008-06-16 07:41:28 51°12.259 2°47.93 19.4709 1.141428 7.55417 -1.697049
2008-06-16 07:41:33 51°12.25 2°47.904 19.5105 1.557302 10.57313 -1.697049
2008-06-16 07:41:38 51°12.243 2°47.878 19.4642 0.538206 3.371648 -1.697049
2008-06-16 07:41:43 51°12.233 2°47.853 19.5099 1.478165 9.991508 -1.697049
2008-06-16 07:41:47 51°12.228 2°47.832 19.48 0.906201 5.890952 -1.731873
2008-06-16 07:41:53 51°12.216 2°47.803 19.502 0.906201 5.890952 -1.731873
2008-06-16 07:41:58 51°12.209 2°47.776 19.4975 1.021843 6.704772 -1.697049
2008-06-16 07:42:03 51°12.2 2°47.751 19.5119 1.430709 9.644914 -1.697049
2008-06-16 07:42:08 51°12.192 2°47.725 19.5065 0.90785 5.903266 -1.697049
2008-06-16 07:42:13 51°12.184 2°47.7 19.5084 1.113385 7.354664 -1.697049
2008-06-16 07:42:18 51°12.176 2°47.674 19.4782 1.349942 9.056385 -1.697049
2008-06-16 07:42:23 51°12.167 2°47.648 19.5219 0.830356 5.363651 -1.697049
2008-06-16 07:42:28 51°12.16 2°47.622 19.4816 0.830356 5.363651 -1.697049
2008-06-16 07:42:33 51°12.152 2°47.596 19.5359 1.697241 11.609822 -1.697049
2008-06-16 07:42:38 51°12.145 2°47.569 19.499 0.753698 4.83442 -1.697049
2008-06-16 07:42:43 51°12.138 2°47.543 19.5287 1.009679 6.619344 -1.697049
2008-06-16 07:42:48 51°12.131 2°47.516 19.5264 1.179267 7.826219 -1.697049
2008-06-16 07:42:53 51°12.124 2°47.489 19.528 1.108333 7.319509 -1.697049
2008-06-16 07:42:58 51°12.118 2°47.462 19.5339 1.108333 7.319509 -1.697049
2008-06-16 07:43:03 51°12.112 2°47.435 19.5337 1.407499 9.476804 -1.697049
2008-06-16 07:43:08 51°12.106 2°47.407 19.566 1.314771 8.803031 -1.697049
2008-06-16 07:43:13 51°12.1 2°47.38 19.5258 1.013081 6.643748 -1.697049
2008-06-16 07:43:18 51°12.093 2°47.353 19.5569 1.149676 7.61543 -1.697049
2008-06-16 07:43:23 51°12.088 2°47.325 19.5362 1.402032 9.436942 -1.697049
2008-06-16 07:43:28 51°12.081 2°47.299 19.5582 1.402032 9.436942 -1.697049
2008-06-16 07:43:33 51°12.075 2°47.271 19.5366 0.721555 4.614369 -1.697049
2008-06-16 07:43:38 51°12.068 2°47.244 19.5752 1.206077 8.019931 -1.697049
2008-06-16 07:43:43 51°12.062 2°47.217 19.5569 1.580932 10.750218 -1.731873
2008-06-16 07:43:47 51°12.057 2°47.195 19.5466 0.45891 2.845587 -1.731873
2008-06-16 07:43:53 51°12.049 2°47.163 19.5767 1.285894 8.596393 -1.697049
2008-06-16 07:43:58 51°12.043 2°47.135 19.5743 1.285894 8.596393 -1.697049
2008-06-16 07:44:03 51°12.036 2°47.109 19.5522 0.660672 4.198548 -1.697049
2008-06-16 07:44:08 51°12.029 2°47.082 19.5889 1.151841 7.629456 -1.697049
2008-06-16 07:44:13 51°12.023 2°47.055 19.5558 1.106477 7.304478 -1.697049
2008-06-16 07:44:18 51°12.015 2°47.029 19.5938 0.494437 3.080031 -1.697049
2008-06-16 07:44:23 51°12.009 2°47.001 19.5432 1.430297 9.640243 -1.731873
2008-06-16 07:44:28 51°12.001 2°46.976 19.5923 1.430297 9.640243 -1.731873
2008-06-16 07:44:33 51°11.995 2°46.949 19.5425 0.456953 2.831922 -1.731873
2008-06-16 07:44:38 51°11.987 2°46.923 19.6012 1.592283 10.831536 -1.731873
2008-06-16 07:44:43 51°11.98 2°46.896 19.5668 0.658097 4.1804 -1.697049
2008-06-16 07:44:48 51°11.972 2°46.87 19.5989 1.172153 7.775991 -1.731873
2008-06-16 07:44:53 51°11.966 2°46.843 19.5911 1.257121 8.387014 -1.697049
2008-06-16 07:44:58 51°11.958 2°46.817 19.6036 1.257121 8.387014 -1.697049
2008-06-16 07:45:03 51°11.951 2°46.79 19.5805 0.818816 5.285058 -1.697049
2008-06-16 07:45:08 51°11.943 2°46.764 19.6029 1.329829 8.914035 -1.697049
2008-06-16 07:45:13 51°11.937 2°46.737 19.596 1.248355 8.325251 -1.731873
2008-06-16 07:45:18 51°11.929 2°46.71 19.6232 1.127715 7.460553 -1.731873
2008-06-16 07:45:23 51°11.923 2°46.682 19.6118 1.127715 7.460553 -1.731873
2008-06-16 07:45:27 51°11.917 2°46.661 19.6052 1.148335 7.607881 -1.731873
2008-06-16 07:45:33 51°11.91 2°46.629 19.6209 1.142871 7.569103 -1.731873
2008-06-16 07:45:38 51°11.903 2°46.601 19.6285 1.125756 7.446855 -1.697049
2008-06-16 07:45:43 51°11.897 2°46.574 19.6233 1.038748 6.828403 -1.697049
2008-06-16 07:45:47 51°11.891 2°46.553 19.6417 0.666647 4.241053 -1.697049
2008-06-16 07:45:53 51°11.883 2°46.521 19.6021 1.02576 6.736321 -1.731873
2008-06-16 07:45:58 51°11.875 2°46.494 19.634 1.02576 6.736321 -1.731873
2008-06-16 07:46:03 51°11.868 2°46.468 19.6401 0.735257 4.709958 -1.697049
2008-06-16 07:46:08 51°11.861 2°46.442 19.6204 0.952784 6.221725 -1.697049
2008-06-16 07:46:13 51°11.853 2°46.415 19.6544 0.592586 3.739148 -1.731873
2008-06-16 07:46:18 51°11.846 2°46.389 19.6215 1.562668 10.618956 -1.731873
2008-06-16 07:46:23 51°11.838 2°46.363 19.6398 0.548711 3.444209 -1.731873
2008-06-16 07:46:28 51°11.831 2°46.337 19.6354 0.548711 3.444209 -1.731873
2008-06-16 07:46:33 51°11.824 2°46.31 19.6692 1.179474 7.831285 -1.697049
2008-06-16 07:46:38 51°11.817 2°46.283 19.6584 0.779765 5.015884 -1.697049
2008-06-16 07:46:43 51°11.81 2°46.257 19.6503 1.026069 6.737737 -1.697049
2008-06-16 07:46:48 51°11.803 2°46.23 19.6591 0.616173 3.897687 -1.731873
2008-06-16 07:46:53 51°11.796 2°46.204 19.6302 1.586401 10.792445 -1.697049
2008-06-16 07:46:58 51°11.789 2°46.177 19.6788 1.586401 10.792445 -1.697049
2008-06-16 07:47:03 51°11.783 2°46.15 19.6504 0.435432 2.691652 -1.697049
2008-06-16 07:47:08 51°11.775 2°46.124 19.6709 1.425964 9.614303 -1.697049
2008-06-16 07:47:13 51°11.769 2°46.097 19.6665 0.586921 3.700549 -1.697049
2008-06-16 07:47:18 51°11.761 2°46.07 19.669 0.999887 6.553477 -1.697049
2008-06-16 07:47:23 51°11.755 2°46.043 19.6723 1.145449 7.588109 -1.697049
2008-06-16 07:47:28 51°11.748 2°46.017 19.6733 1.145449 7.588109 -1.697049
2008-06-16 07:47:33 51°11.741 2°45.99 19.6714 1.017617 6.679617 -1.697049
2008-06-16 07:47:38 51°11.734 2°45.963 19.6845 1.036274 6.81179 -1.697049
2008-06-16 07:47:43 51°11.728 2°45.936 19.6849 0.921144 6.000636 -1.697049
2008-06-16 07:47:48 51°11.721 2°45.91 19.701 1.172978 7.786062 -1.731873
2008-06-16 07:47:53 51°11.714 2°45.883 19.6995 0.920526 5.996417 -1.697049
2008-06-16 07:47:58 51°11.707 2°45.856 19.698 0.920526 5.996417 -1.697049
2008-06-16 07:48:03 51°11.701 2°45.829 19.7016 0.776159 4.992429 -1.697049
2008-06-16 07:48:08 51°11.693 2°45.803 19.6913 1.07689 7.099736 -1.697049
2008-06-16 07:48:13 51°11.687 2°45.776 19.7119 0.819125 5.289115 -1.697049
2008-06-16 07:48:18 51°11.68 2°45.749 19.6649 0.732887 4.694137 -1.697049
2008-06-16 07:48:23 51°11.673 2°45.722 19.7107 1.103591 7.290044 -1.697049
2008-06-16 07:48:27 51°11.668 2°45.701 19.7187 1.103591 7.290044 -1.697049
2008-06-16 07:48:33 51°11.66 2°45.669 19.6776 0.913415 5.946158 -1.697049
2008-06-16 07:48:38 51°11.653 2°45.642 19.735 1.101013 7.27182 -1.731873
2008-06-16 07:48:43 51°11.647 2°45.615 19.6798 0.719906 4.605354 -1.697049
2008-06-16 07:48:48 51°11.639 2°45.589 19.7291 1.252687 8.35999 -1.697049
2008-06-16 07:48:53 51°11.634 2°45.562 19.7185 1.015967 6.668465 -1.697049
2008-06-16 07:48:58 51°11.627 2°45.536 19.7333 1.015967 6.668465 -1.697049
2008-06-16 07:49:03 51°11.62 2°45.508 19.7436 0.835509 5.40362 -1.697049
2008-06-16 07:49:08 51°11.614 2°45.481 19.7297 1.146067 7.593693 -1.697049
2008-06-16 07:49:13 51°11.608 2°45.454 19.7298 0.533674 3.344293 -1.697049
2008-06-16 07:49:18 51°11.601 2°45.428 19.7483 1.14483 7.58499 -1.697049
2008-06-16 07:49:23 51°11.596 2°45.4 19.7051 1.238146 8.254844 -1.697049
2008-06-16 07:49:28 51°11.589 2°45.373 19.7509 1.238146 8.254844 -1.697049
2008-06-16 07:49:33 51°11.584 2°45.346 19.7061 0.706102 4.511405 -1.697049
2008-06-16 07:49:38 51°11.578 2°45.319 19.7653 1.680727 11.497014 -1.697049
2008-06-16 07:49:43 51°11.573 2°45.291 19.7403 0.854366 5.535154 -1.697049
2008-06-16 07:49:48 51°11.567 2°45.264 19.7493 1.4206 9.579891 -1.697049
2008-06-16 07:49:53 51°11.562 2°45.236 19.7742 0.580741 3.660404 -1.697049
2008-06-16 07:49:58 51°11.556 2°45.209 19.7534 0.580741 3.660404 -1.697049
2008-06-16 07:50:03 51°11.551 2°45.181 19.7731 1.421322 9.584799 -1.697049
2008-06-16 07:50:08 51°11.546 2°45.154 19.7771 0.760292 4.883788 -1.697049
2008-06-16 07:50:13 51°11.541 2°45.126 19.7269 1.424211 9.606085 -1.731873
2008-06-16 07:50:18 51°11.535 2°45.099 19.7803 0.617203 3.906808 -1.697049
2008-06-16 07:50:23 51°11.53 2°45.071 19.7728 1.172153 7.781786 -1.731873
2008-06-16 07:50:27 51°11.526 2°45.049 19.7872 1.172153 7.781786 -1.731873
2008-06-16 07:50:33 51°11.519 2°45.016 19.7863 0.515137 3.221093 -1.731873
2008-06-16 07:50:38 51°11.513 2°44.989 19.7654 1.008443 6.616416 -1.731873
2008-06-16 07:50:43 51°11.507 2°44.962 19.7775 0.527083 3.300879 -1.697049
2008-06-16 07:50:47 51°11.502 2°44.94 19.7899 0.919495 5.990683 -1.697049
2008-06-16 07:50:53 51°11.495 2°44.908 19.7933 0.919495 5.990683 -1.697049
2008-06-16 07:50:58 51°11.487 2°44.882 19.7869 0.933202 6.086684 -1.697049
2008-06-16 07:51:03 51°11.482 2°44.854 19.7955 0.632242 4.00914 -1.697049
2008-06-16 07:51:08 51°11.475 2°44.827 19.7888 1.113282 7.361656 -1.697049
2008-06-16 07:51:13 51°11.469 2°44.8 19.8033 1.459905 9.869296 -1.697049
2008-06-16 07:51:18 51°11.464 2°44.773 19.7948 0.560658 3.526124 -1.697049
2008-06-16 07:51:23 51°11.457 2°44.746 19.7834 1.546262 10.503672 -1.697049
2008-06-16 07:51:27 51°11.453 2°44.724 19.8151 1.546262 10.503672 -1.697049
2008-06-16 07:51:33 51°11.446 2°44.691 19.7997 0.918465 5.984147 -1.697049
2008-06-16 07:51:38 51°11.44 2°44.664 19.8042 1.269393 8.48269 -1.697049
2008-06-16 07:51:43 51°11.435 2°44.636 19.8381 1.071529 7.064201 -1.697049
2008-06-16 07:51:48 51°11.43 2°44.609 19.7762 1.25114 8.350268 -1.697049
2008-06-16 07:51:53 51°11.424 2°44.582 19.8264 0.928049 6.050997 -1.697049
2008-06-16 07:51:58 51°11.419 2°44.554 19.8156 0.928049 6.050997 -1.697049
2008-06-16 07:52:03 51°11.413 2°44.527 19.8327 1.142149 7.567124 -1.697049
2008-06-16 07:52:08 51°11.408 2°44.499 19.8319 1.3879 9.342369 -1.731873
2008-06-16 07:52:13 51°11.403 2°44.471 19.8357 0.591659 3.734533 -1.697049
2008-06-16 07:52:18 51°11.397 2°44.444 19.8182 1.379545 9.281666 -1.697049
2008-06-16 07:52:23 51°11.391 2°44.417 19.8617 0.551079 3.461792 -1.697049
2008-06-16 07:52:28 51°11.386 2°44.389 19.8397 0.551079 3.461792 -1.697049
2008-06-16 07:52:33 51°11.38 2°44.362 19.8459 0.95196 6.219016 -1.731873
2008-06-16 07:52:38 51°11.375 2°44.335 19.8542 0.857663 5.559912 -1.697049
2008-06-16 07:52:43 51°11.369 2°44.308 19.831 1.449485 9.793733 -1.697049
2008-06-16 07:52:47 51°11.364 2°44.286 19.8541 0.612877 3.878575 -1.697049
2008-06-16 07:52:53 51°11.358 2°44.253 19.8303 0.880334 5.718001 -1.697049
2008-06-16 07:52:58 51°11.352 2°44.226 19.8365 0.880334 5.718001 -1.697049
2008-06-16 07:53:03 51°11.346 2°44.199 19.8698 1.631601 11.135853 -1.697049
2008-06-16 07:53:08 51°11.341 2°44.171 19.8303 0.422973 2.611903 -1.697049
2008-06-16 07:53:13 51°11.334 2°44.144 19.8699 1.452064 9.813182 -1.697049
2008-06-16 07:53:18 51°11.329 2°44.117 19.847 1.005454 6.597436 -1.697049
2008-06-16 07:53:23 51°11.323 2°44.089 19.8759 0.793881 5.117569 -1.697049
2008-06-16 07:53:28 51°11.318 2°44.062 19.8762 0.793881 5.117569 -1.697049
2008-06-16 07:53:33 51°11.311 2°44.036 19.8803 1.403579 9.458705 -1.697049
2008-06-16 07:53:38 51°11.306 2°44.008 19.8773 0.955258 6.243637 -1.697049
2008-06-16 07:53:43 51°11.3 2°43.98 19.8564 0.685601 4.37327 -1.697049
2008-06-16 07:53:48 51°11.293 2°43.954 19.8909 0.880747 5.721752 -1.731873
2008-06-16 07:53:53 51°11.287 2°43.927 19.8757 1.50953 10.236243 -1.697049
2008-06-16 07:53:58 51°11.28 2°43.901 19.8885 1.50953 10.236243 -1.697049
2008-06-16 07:54:03 51°11.274 2°43.873 19.8814 0.619366 3.922868 -1.731873
2008-06-16 07:54:08 51°11.268 2°43.847 19.8721 1.07524 7.093024 -1.697049
2008-06-16 07:54:13 51°11.262 2°43.82 19.8675 1.499316 10.161158 -1.697049
2008-06-16 07:54:18 51°11.256 2°43.792 19.8915 0.636568 4.039565 -1.697049
2008-06-16 07:54:23 51°11.251 2°43.764 19.9041 0.636568 4.039565 -1.697049
2008-06-16 07:54:28 51°11.245 2°43.737 19.9026 1.070808 7.060826 -1.731873
2008-06-16 07:54:33 51°11.24 2°43.71 19.8939 1.35448 9.101164 -1.697049
2008-06-16 07:54:38 51°11.235 2°43.682 19.8873 0.706823 4.518407 -1.697049
2008-06-16 07:54:42 51°11.23 2°43.66 19.9113 1.085652 7.166294 -1.697049
2008-06-16 07:54:48 51°11.224 2°43.628 19.8748 1.634181 11.156259 -1.697049
2008-06-16 07:54:53 51°11.218 2°43.6 19.9086 0.970203 6.349806 -1.731873
2008-06-16 07:54:58 51°11.213 2°43.572 19.9025 0.970203 6.349806 -1.731873
2008-06-16 07:55:03 51°11.208 2°43.545 19.9246 1.208758 8.048875 -1.697049
2008-06-16 07:55:08 51°11.204 2°43.517 19.9054 1.479403 10.016084 -1.697049
2008-06-16 07:55:13 51°11.199 2°43.489 19.9277 0.903315 5.880648 -1.697049
2008-06-16 07:55:18 51°11.194 2°43.462 19.9301 1.4467 9.776895 -1.731873
2008-06-16 07:55:23 51°11.19 2°43.434 19.9427 0.999475 6.557075 -1.697049
2008-06-16 07:55:28 51°11.186 2°43.406 19.931 0.999475 6.557075 -1.697049
2008-06-16 07:55:33 51°11.181 2°43.379 19.9341 1.286513 8.610409 -1.697049
2008-06-16 07:55:38 51°11.177 2°43.351 19.9437 1.248356 8.334805 -1.697049
2008-06-16 07:55:43 51°11.172 2°43.323 19.9524 1.205355 8.024861 -1.697049
2008-06-16 07:55:48 51°11.168 2°43.295 19.9208 1.429678 9.65195 -1.697049
2008-06-16 07:55:53 51°11.163 2°43.268 19.9627 1.429678 9.65195 -1.697049
2008-06-16 07:55:58 51°11.159 2°43.24 19.9317 0.776056 4.995432 -1.697049
2008-06-16 07:56:03 51°11.154 2°43.212 19.9646 1.507776 10.224716 -1.697049
2008-06-16 07:56:08 51°11.15 2°43.184 19.9379 0.856015 5.550018 -1.697049
2008-06-16 07:56:13 51°11.145 2°43.157 19.9677 1.143181 7.578696 -1.697049
2008-06-16 07:56:18 51°11.141 2°43.129 19.9367 1.136994 7.534445 -1.697049
2008-06-16 07:56:23 51°11.136 2°43.102 19.9591 0.787905 5.077598 -1.697049
2008-06-16 07:56:28 51°11.132 2°43.074 19.9687 0.787905 5.077598 -1.697049
2008-06-16 07:56:33 51°11.127 2°43.046 19.9466 0.993085 6.511811 -1.697049
2008-06-16 07:56:38 51°11.123 2°43.019 19.9748 0.989477 6.486342 -1.697049
2008-06-16 07:56:42 51°11.119 2°42.996 19.9733 1.205252 8.02412 -1.697049
2008-06-16 07:56:48 51°11.114 2°42.964 19.9791 0.990611 6.49447 -1.697049
2008-06-16 07:56:53 51°11.109 2°42.936 19.9304 1.522221 10.331583 -1.697049
2008-06-16 07:56:58 51°11.104 2°42.908 19.979 1.522221 10.331583 -1.697049
2008-06-16 07:57:03 51°11.1 2°42.88 19.9788 0.592483 3.742085 -1.731873
2008-06-16 07:57:08 51°11.095 2°42.853 19.9967 1.387075 9.341357 -1.697049
2008-06-16 07:57:13 51°11.091 2°42.826 19.9843 1.374594 9.25056 -1.697049
2008-06-16 07:57:18 51°11.086 2°42.798 19.9945 0.814076 5.259136 -1.697049
2008-06-16 07:57:23 51°11.081 2°42.77 19.9898 1.089054 7.192851 -1.697049
2008-06-16 07:57:28 51°11.076 2°42.743 19.9671 1.089054 7.192851 -1.697049
2008-06-16 07:57:33 51°11.07 2°42.716 19.9707 1.516649 10.291168 -1.697049
2008-06-16 07:57:38 51°11.065 2°42.688 19.9852 0.992672 6.509771 -1.697049
2008-06-16 07:57:43 51°11.06 2°42.661 20.0037 0.88425 5.748417 -1.697049
2008-06-16 07:57:48 51°11.054 2°42.634 19.9996 1.108745 7.334206 -1.697049
2008-06-16 07:57:53 51°11.049 2°42.607 19.9755 1.108745 7.334206 -1.697049
2008-06-16 07:57:58 51°11.043 2°42.58 19.9922 1.203705 8.014683 -1.697049
2008-06-16 07:58:03 51°11.038 2°42.552 20.0223 1.243715 8.30291 -1.697049
2008-06-16 07:58:08 51°11.033 2°42.525 20.0147 0.947116 6.189223 -1.697049
2008-06-16 07:58:13 51°11.027 2°42.498 20.0071 1.210511 8.063645 -1.697049
2008-06-16 07:58:18 51°11.022 2°42.471 20.0017 0.905376 5.896203 -1.697049
2008-06-16 07:58:23 51°11.016 2°42.444 20.0089 0.831181 5.378593 -1.697049
2008-06-16 07:58:28 51°11.011 2°42.416 20.0131 0.831181 5.378593 -1.697049
2008-06-16 07:58:33 51°11.005 2°42.39 20.0277 1.284759 8.599201 -1.697049
2008-06-16 07:58:38 51°11 2°42.363 20.0048 0.852202 5.524625 -1.697049
2008-06-16 07:58:43 51°10.994 2°42.335 20.0472 0.813561 5.256065 -1.697049
2008-06-16 07:58:48 51°10.989 2°42.308 20.0325 1.000918 6.567899 -1.697049
2008-06-16 07:58:53 51°10.982 2°42.282 20.0481 0.576622 3.635513 -1.697049
2008-06-16 07:58:58 51°10.976 2°42.255 20.0437 0.576622 3.635513 -1.697049
2008-06-16 07:59:03 51°10.969 2°42.229 20.0052 0.611538 3.871213 -1.697049
2008-06-16 07:59:08 51°10.963 2°42.202 20.0406 1.536356 10.436888 -1.697049
2008-06-16 07:59:13 51°10.957 2°42.175 20.0423 0.432343 2.674849 -1.697049
2008-06-16 07:59:18 51°10.95 2°42.15 20.0253 1.427099 9.635486 -1.697049
2008-06-16 07:59:23 51°10.944 2°42.123 20.0611 0.708059 4.529032 -1.697049
2008-06-16 07:59:28 51°10.938 2°42.096 20.074 0.708059 4.529032 -1.697049
2008-06-16 07:59:33 51°10.932 2°42.069 20.0469 0.782135 5.03877 -1.697049
2008-06-16 07:59:38 51°10.926 2°42.043 20.0676 1.239797 8.275274 -1.697049
2008-06-16 07:59:43 51°10.92 2°42.017 20.0364 0.683953 4.364343 -1.697049
2008-06-16 07:59:48 51°10.913 2°41.99 20.0581 1.271662 8.506078 -1.697049
2008-06-16 07:59:53 51°10.908 2°41.963 20.0461 1.303839 8.739071 -1.731873
2008-06-16 07:59:58 51°10.902 2°41.937 20.068 1.303839 8.739071 -1.731873
2008-06-16 08:00:03 51°10.897 2°41.91 20.0647 0.821083 5.309573 -1.697049
2008-06-16 08:00:08 51°10.891 2°41.883 20.0742 0.929698 6.068124 -1.697049
2008-06-16 08:00:13 51°10.885 2°41.856 20.0822 1.018854 6.697059 -1.697049
2008-06-16 08:00:18 51°10.88 2°41.829 20.0905 1.176793 7.823275 -1.697049
2008-06-16 08:00:23 51°10.875 2°41.802 20.0964 0.850759 5.51637 -1.697049
2008-06-16 08:00:28 51°10.869 2°41.775 20.0512 0.850759 5.51637 -1.697049
2008-06-16 08:00:33 51°10.864 2°41.749 20.0901 1.517681 10.303101 -1.697049
2008-06-16 08:00:38 51°10.859 2°41.721 20.0809 0.677875 4.323574 -1.697049
2008-06-16 08:00:43 51°10.853 2°41.695 20.0635 0.652328 4.149415 -1.697049
2008-06-16 08:00:48 51°10.848 2°41.668 20.0933 1.036996 6.825894 -1.697049
2008-06-16 08:00:53 51°10.843 2°41.641 20.0886 0.801093 5.171331 -1.697049
2008-06-16 08:00:58 51°10.837 2°41.614 20.0831 0.801093 5.171331 -1.697049
2008-06-16 08:01:03 51°10.833 2°41.587 20.1136 1.537491 10.449655 -1.731873
2008-06-16 08:01:08 51°10.828 2°41.56 20.0963 0.840455 5.445047 -1.697049
2008-06-16 08:01:13 51°10.822 2°41.533 20.1186 1.231238 8.216069 -1.697049
2008-06-16 08:01:18 51°10.818 2°41.506 20.08 1.270631 8.500409 -1.697049
2008-06-16 08:01:23 51°10.813 2°41.478 20.1371 0.871266 5.660122 -1.697049
2008-06-16 08:01:28 51°10.809 2°41.451 20.1075 0.871266 5.660122 -1.697049
2008-06-16 08:01:33 51°10.803 2°41.424 20.1269 1.295176 8.677946 -1.697049
2008-06-16 08:01:38 51°10.8 2°41.397 20.0845 0.57724 3.64127 -1.697049
2008-06-16 08:01:43 51°10.794 2°41.37 20.1364 1.248459 8.340495 -1.697049
2008-06-16 08:01:48 51°10.79 2°41.342 20.1369 0.712386 4.560255 -1.697049
2008-06-16 08:01:53 51°10.785 2°41.315 20.1314 1.055242 6.955954 -1.697049
2008-06-16 08:01:58 51°10.78 2°41.289 20.1351 1.055242 6.955954 -1.697049
2008-06-16 08:02:03 51°10.775 2°41.262 20.0997 0.758232 4.875451 -1.697049
2008-06-16 08:02:08 51°10.77 2°41.235 20.1435 0.94052 6.144968 -1.697049
2008-06-16 08:02:13 51°10.765 2°41.207 20.1326 1.10957 7.342479 -1.697049
2008-06-16 08:02:18 51°10.76 2°41.181 20.1657 1.147923 7.617153 -1.697049
2008-06-16 08:02:23 51°10.756 2°41.153 20.1217 1.365723 9.190525 -1.697049
2008-06-16 08:02:28 51°10.751 2°41.126 20.1627 1.365723 9.190525 -1.697049
2008-06-16 08:02:33 51°10.747 2°41.099 20.1262 0.627916 3.983906 -1.697049
2008-06-16 08:02:38 51°10.742 2°41.071 20.163 1.143387 7.584813 -1.697049
2008-06-16 08:02:43 51°10.738 2°41.044 20.1517 1.119055 7.410783 -1.697049
2008-06-16 08:02:48 51°10.734 2°41.017 20.1479 0.912384 5.947795 -1.697049
2008-06-16 08:02:53 51°10.729 2°40.989 20.169 0.886105 5.763803 -1.697049
2008-06-16 08:02:58 51°10.725 2°40.962 20.1501 0.886105 5.763803 -1.697049
2008-06-16 08:03:03 51°10.721 2°40.935 20.1685 0.866835 5.629408 -1.697049
2008-06-16 08:03:08 51°10.717 2°40.907 20.1759 0.998445 6.554176 -1.697049
2008-06-16 08:03:13 51°10.712 2°40.88 20.1541 1.062354 7.007448 -1.697049
2008-06-16 08:03:18 51°10.708 2°40.853 20.1751 0.642543 4.083867 -1.697049
2008-06-16 08:03:23 51°10.704 2°40.825 20.1739 1.0271 6.757413 -1.697049
2008-06-16 08:03:28 51°10.699 2°40.798 20.1788 1.0271 6.757413 -1.697049
2008-06-16 08:03:33 51°10.695 2°40.771 20.1832 0.851996 5.526462 -1.697049
2008-06-16 08:03:38 51°10.69 2°40.744 20.2018 0.590423 3.730887 -1.697049
2008-06-16 08:03:42 51°10.686 2°40.723 20.1792 0.801093 5.172813 -1.697049
2008-06-16 08:03:48 51°10.679 2°40.691 20.1866 0.677463 4.321833 -1.697049
2008-06-16 08:03:53 51°10.674 2°40.664 20.2004 0.726191 4.655813 -1.697049
2008-06-16 08:03:58 51°10.669 2°40.638 20.1915 0.726191 4.655813 -1.697049
2008-06-16 08:04:03 51°10.663 2°40.611 20.202 0.996177 6.538772 -1.697049
2008-06-16 08:04:08 51°10.658 2°40.584 20.1683 0.829635 5.371135 -1.697049
2008-06-16 08:04:13 51°10.652 2°40.558 20.1907 0.640173 4.068227 -1.697049
2008-06-16 08:04:18 51°10.647 2°40.531 20.1686 1.56886 10.68383 -1.731873
2008-06-16 08:04:23 51°10.642 2°40.505 20.2085 1.219585 8.134106 -1.697049
2008-06-16 08:04:28 51°10.637 2°40.478 20.2142 1.219585 8.134106 -1.697049
2008-06-16 08:04:33 51°10.632 2°40.451 20.1695 1.075756 7.103886 -1.697049
2008-06-16 08:04:38 51°10.627 2°40.424 20.2141 1.222266 8.153584 -1.731873
2008-06-16 08:04:43 51°10.624 2°40.397 20.2276 1.264959 8.461822 -1.697049
2008-06-16 08:04:48 51°10.619 2°40.37 20.2205 1.135551 7.531035 -1.697049
2008-06-16 08:04:53 51°10.615 2°40.343 20.2138 1.042665 6.868878 -1.697049
2008-06-16 08:04:58 51°10.61 2°40.316 20.213 1.042665 6.868878 -1.697049
2008-06-16 08:05:03 51°10.606 2°40.29 20.2374 1.262484 8.444572 -1.697049
2008-06-16 08:05:08 51°10.601 2°40.263 20.2212 1.355615 9.120759 -1.697049
2008-06-16 08:05:13 51°10.598 2°40.236 20.23 1.041119 6.858426 -1.697049
2008-06-16 08:05:18 51°10.593 2°40.209 20.2405 0.946188 6.187548 -1.697049
2008-06-16 08:05:23 51°10.589 2°40.182 20.2451 1.213089 8.088543 -1.697049
2008-06-16 08:05:28 51°10.585 2°40.155 20.2383 1.213089 8.088543 -1.697049
2008-06-16 08:05:33 51°10.581 2°40.128 20.2565 1.142871 7.584315 -1.697049
2008-06-16 08:05:38 51°10.576 2°40.101 20.2447 0.751638 4.832123 -1.697049
2008-06-16 08:05:43 51°10.571 2°40.074 20.2412 0.93547 6.11228 -1.697049
2008-06-16 08:05:48 51°10.567 2°40.048 20.2322 1.080395 7.138427 -1.697049
2008-06-16 08:05:53 51°10.561 2°40.021 20.2364 0.762662 4.908538 -1.731873
2008-06-16 08:05:58 51°10.556 2°39.995 20.2487 0.762662 4.908538 -1.731873
2008-06-16 08:06:03 51°10.551 2°39.968 20.2707 0.931863 6.087394 -1.697049
2008-06-16 08:06:08 51°10.546 2°39.942 20.2404 0.774202 4.988243 -1.697049
2008-06-16 08:06:13 51°10.541 2°39.915 20.274 0.701363 4.487018 -1.731873
2008-06-16 08:06:18 51°10.536 2°39.889 20.2001 0.93279 6.093563 -1.697049
2008-06-16 08:06:23 51°10.53 2°39.863 20.2608 0.970409 6.358669 -1.697049
2008-06-16 08:06:28 51°10.526 2°39.836 20.2549 0.970409 6.358669 -1.697049
2008-06-16 08:06:33 51°10.521 2°39.809 20.291 1.446597 9.787195 -1.697049
2008-06-16 08:06:38 51°10.517 2°39.782 20.261 0.810367 5.239016 -1.697049
2008-06-16 08:06:43 51°10.512 2°39.755 20.2761 1.01772 6.693638 -1.697049
2008-06-16 08:06:48 51°10.507 2°39.729 20.2802 0.817786 5.290422 -1.697049
2008-06-16 08:06:53 51°10.502 2°39.702 20.2629 0.701466 4.487724 -1.697049
2008-06-16 08:06:58 51°10.497 2°39.675 20.2773 0.701466 4.487724 -1.697049
2008-06-16 08:07:03 51°10.492 2°39.649 20.2891 0.813458 5.260271 -1.697049
2008-06-16 08:07:08 51°10.487 2°39.622 20.2728 1.108746 7.340945 -1.697049
2008-06-16 08:07:13 51°10.482 2°39.595 20.2929 0.764002 4.917972 -1.697049
2008-06-16 08:07:18 51°10.477 2°39.569 20.2819 1.472285 9.975692 -1.731873
2008-06-16 08:07:23 51°10.472 2°39.542 20.3364 0.884457 5.755685 -1.697049
2008-06-16 08:07:28 51°10.467 2°39.516 20.3098 0.884457 5.755685 -1.697049
2008-06-16 08:07:33 51°10.46 2°39.49 20.3073 0.390642 2.403738 -1.697049
2008-06-16 08:07:38 51°10.452 2°39.465 20.2728 0.473224 2.947458 -1.697049
2008-06-16 08:07:42 51°10.445 2°39.446 20.2803 0.604225 3.825616 -1.697049
2008-06-16 08:07:48 51°10.435 2°39.417 20.2661 0.442537 2.744548 -1.697049
2008-06-16 08:07:53 51°10.427 2°39.393 20.2384 1.674948 11.475593 -1.731873
2008-06-16 08:07:58 51°10.419 2°39.367 20.3062 1.674948 11.475593 -1.731873
2008-06-16 08:08:03 51°10.412 2°39.342 20.2949 0.841073 5.4531 -1.697049
2008-06-16 08:08:08 51°10.405 2°39.316 20.3094 1.463309 9.911312 -1.697049
2008-06-16 08:08:13 51°10.4 2°39.29 20.3152 0.935058 6.111253 -1.697049
2008-06-16 08:08:18 51°10.394 2°39.264 20.302 1.603842 10.947891 -1.697049
2008-06-16 08:08:22 51°10.389 2°39.242 20.3355 0.722997 4.63644 -1.697049
2008-06-16 08:08:28 51°10.385 2°39.21 20.3179 0.722997 4.63644 -1.697049
2008-06-16 08:08:33 51°10.38 2°39.183 20.3393 1.670303 11.441683 -1.697049
2008-06-16 08:08:38 51°10.376 2°39.155 20.3449 1.107715 7.335127 -1.697049
2008-06-16 08:08:43 51°10.372 2°39.128 20.3303 1.311884 8.80584 -1.697049
2008-06-16 08:08:48 51°10.369 2°39.101 20.3345 1.021121 6.7189 -1.697049
2008-06-16 08:08:53 51°10.365 2°39.073 20.3488 0.969997 6.357342 -1.697049
2008-06-16 08:08:58 51°10.362 2°39.046 20.3352 0.969997 6.357342 -1.697049
2008-06-16 08:09:03 51°10.358 2°39.018 20.3598 1.45485 9.849607 -1.697049
2008-06-16 08:09:08 51°10.355 2°38.991 20.3302 0.966493 6.332744 -1.697049
2008-06-16 08:09:13 51°10.351 2°38.964 20.3636 1.145552 7.606429 -1.697049
2008-06-16 08:09:18 51°10.348 2°38.936 20.3596 0.948868 6.208782 -1.697049
2008-06-16 08:09:23 51°10.344 2°38.908 20.3614 0.829945 5.376572 -1.697049
2008-06-16 08:09:28 51°10.341 2°38.881 20.3604 0.829945 5.376572 -1.697049
2008-06-16 08:09:33 51°10.337 2°38.854 20.381 1.048644 6.915043 -1.697049
2008-06-16 08:09:38 51°10.333 2°38.826 20.3504 0.662526 4.222896 -1.697049
2008-06-16 08:09:43 51°10.329 2°38.799 20.3783 1.022462 6.729431 -1.697049
2008-06-16 08:09:48 51°10.325 2°38.772 20.3571 0.745044 4.788883 -1.697049
2008-06-16 08:09:53 51°10.32 2°38.745 20.362 0.674785 4.306749 -1.697049
2008-06-16 08:09:58 51°10.317 2°38.717 20.3648 0.674785 4.306749 -1.697049
2008-06-16 08:10:03 51°10.312 2°38.691 20.3318 0.683335 4.365116 -1.731873
2008-06-16 08:10:08 51°10.307 2°38.664 20.3893 1.148748 7.629777 -1.697049
2008-06-16 08:10:13 51°10.304 2°38.636 20.3186 0.870545 5.65952 -1.731873
2008-06-16 08:10:18 51°10.299 2°38.609 20.378 0.801197 5.177087 -1.697049
2008-06-16 08:10:22 51°10.296 2°38.587 20.3741 0.801197 5.177087 -1.697049
2008-06-16 08:10:28 51°10.291 2°38.555 20.3873 1.228557 8.203804 -1.697049
2008-06-16 08:10:33 51°10.288 2°38.528 20.3713 0.650371 4.140044 -1.697049
2008-06-16 08:10:38 51°10.283 2°38.501 20.394 1.491887 10.12228 -1.731873
2008-06-16 08:10:43 51°10.28 2°38.473 20.3986 0.607109 3.84609 -1.697049
2008-06-16 08:10:48 51°10.275 2°38.447 20.3885 1.471769 9.974581 -1.697049
2008-06-16 08:10:53 51°10.271 2°38.42 20.4274 0.716713 4.593796 -1.697049
2008-06-16 08:10:58 51°10.267 2°38.393 20.3912 0.716713 4.593796 -1.697049
2008-06-16 08:11:03 51°10.263 2°38.366 20.4239 1.188032 7.911714 -1.697049
2008-06-16 08:11:08 51°10.259 2°38.339 20.4133 0.508958 3.1864 -1.697049
2008-06-16 08:11:13 51°10.254 2°38.313 20.4171 0.942169 6.162334 -1.697049
2008-06-16 08:11:18 51°10.249 2°38.286 20.4016 0.56385 3.554536 -1.697049
2008-06-16 08:11:23 51°10.244 2°38.26 20.4164 0.726191 4.659549 -1.697049
2008-06-16 08:11:28 51°10.239 2°38.233 20.4211 0.726191 4.659549 -1.697049
2008-06-16 08:11:33 51°10.234 2°38.207 20.3892 0.987313 6.481097 -1.697049
2008-06-16 08:11:38 51°10.229 2°38.18 20.4123 0.52801 3.31407 -1.731873
2008-06-16 08:11:43 51°10.224 2°38.154 20.399 1.480126 10.03772 -1.697049
2008-06-16 08:11:48 51°10.219 2°38.127 20.4409 0.594955 3.764795 -1.697049
2008-06-16 08:11:53 51°10.215 2°38.1 20.3548 1.535222 10.443928 -1.731873
2008-06-16 08:11:58 51°10.209 2°38.074 20.446 1.535222 10.443928 -1.731873
2008-06-16 08:12:03 51°10.206 2°38.046 20.3852 0.604328 3.828577 -1.697049
2008-06-16 08:12:08 51°10.201 2°38.02 20.4176 1.617257 11.051803 -1.697049
2008-06-16 08:12:13 51°10.197 2°37.993 20.4211 0.996383 6.546114 -1.697049
2008-06-16 08:12:18 51°10.192 2°37.966 20.4453 0.843649 5.473449 -1.697049
2008-06-16 08:12:22 51°10.189 2°37.945 20.3877 0.843649 5.473449 -1.697049
2008-06-16 08:12:28 51°10.183 2°37.913 20.46 1.433908 9.699044 -1.697049
2008-06-16 08:12:33 51°10.179 2°37.886 20.4179 0.495158 3.094928 -1.697049
2008-06-16 08:12:38 51°10.173 2°37.86 20.4516 0.936398 6.122548 -1.697049
2008-06-16 08:12:43 51°10.169 2°37.833 20.4414 1.039058 6.848116 -1.697049
2008-06-16 08:12:48 51°10.164 2°37.806 20.4665 0.814282 5.268814 -1.697049
2008-06-16 08:12:53 51°10.158 2°37.78 20.4577 0.990096 6.501517 -1.697049
2008-06-16 08:12:58 51°10.153 2°37.753 20.4346 0.990096 6.501517 -1.697049
2008-06-16 08:13:03 51°10.148 2°37.727 20.4689 0.996796 6.548906 -1.697049
2008-06-16 08:13:08 51°10.143 2°37.7 20.4518 0.639143 4.064715 -1.697049
2008-06-16 08:13:13 51°10.138 2°37.673 20.4651 1.104931 7.318188 -1.697049
2008-06-16 08:13:18 51°10.134 2°37.647 20.4475 0.691267 4.42041 -1.697049
2008-06-16 08:13:23 51°10.128 2°37.62 20.4681 0.952372 6.235608 -1.697049
2008-06-16 08:13:28 51°10.124 2°37.593 20.4507 0.952372 6.235608 -1.697049
2008-06-16 08:13:33 51°10.118 2°37.567 20.4742 1.284038 8.60732 -1.731873
2008-06-16 08:13:38 51°10.114 2°37.539 20.4441 0.505044 3.161133 -1.731873
2008-06-16 08:13:43 51°10.109 2°37.513 20.49 1.210511 8.076162 -1.697049
2008-06-16 08:13:48 51°10.104 2°37.486 20.4826 0.970203 6.361718 -1.697049
2008-06-16 08:13:53 51°10.099 2°37.459 20.4731 0.755759 4.86444 -1.697049
2008-06-16 08:13:58 51°10.095 2°37.432 20.4764 0.755759 4.86444 -1.697049
2008-06-16 08:14:03 51°10.09 2°37.405 20.4744 0.857458 5.570386 -1.697049
2008-06-16 08:14:08 51°10.086 2°37.378 20.4553 1.183702 7.883442 -1.697049
2008-06-16 08:14:13 51°10.082 2°37.351 20.4961 0.680039 4.343984 -1.731873
2008-06-16 08:14:18 51°10.078 2°37.323 20.4514 1.59022 10.852197 -1.697049
2008-06-16 08:14:23 51°10.074 2°37.296 20.5021 0.461793 2.873682 -1.697049
2008-06-16 08:14:28 51°10.07 2°37.269 20.479 0.461793 2.873682 -1.697049
2008-06-16 08:14:33 51°10.066 2°37.242 20.505 1.400588 9.456782 -1.697049
2008-06-16 08:14:38 51°10.062 2°37.215 20.5027 0.864671 5.62043 -1.697049
2008-06-16 08:14:43 51°10.058 2°37.187 20.5079 1.004423 6.603652 -1.697049
2008-06-16 08:14:48 51°10.054 2°37.16 20.5168 0.980819 6.437061 -1.697049
2008-06-16 08:14:53 51°10.05 2°37.133 20.5093 0.99226 6.518197 -1.697049
2008-06-16 08:14:58 51°10.046 2°37.106 20.4962 0.99226 6.518197 -1.697049
2008-06-16 08:15:03 51°10.042 2°37.078 20.5092 0.956804 6.267922 -1.697049
2008-06-16 08:15:08 51°10.038 2°37.051 20.5194 0.919393 6.004405 -1.697049
2008-06-16 08:15:13 51°10.034 2°37.024 20.5191 0.805112 5.206338 -1.697049
2008-06-16 08:15:18 51°10.03 2°36.997 20.5159 0.884354 5.758598 -1.697049
2008-06-16 08:15:23 51°10.026 2°36.969 20.4924 0.802639 5.189077 -1.697049
2008-06-16 08:15:28 51°10.021 2°36.943 20.5251 0.802639 5.189077 -1.697049
2008-06-16 08:15:33 51°10.016 2°36.916 20.5238 0.793778 5.127717 -1.697049
2008-06-16 08:15:38 51°10.012 2°36.889 20.5044 0.898163 5.856109 -1.697049
2008-06-16 08:15:43 51°10.007 2°36.862 20.5068 0.848596 5.509824 -1.697049
2008-06-16 08:15:48 51°10.002 2°36.836 20.5151 0.82098 5.317491 -1.697049
2008-06-16 08:15:53 51°9.997 2°36.809 20.515 0.82098 5.317491 -1.697049
2008-06-16 08:15:58 51°9.992 2°36.782 20.5243 0.511326 3.203984 -1.697049
2008-06-16 08:16:03 51°9.987 2°36.755 20.507 0.641719 4.083562 -1.697049
2008-06-16 08:16:08 51°9.982 2°36.729 20.5189 0.969482 6.358086 -1.697049
2008-06-16 08:16:13 51°9.978 2°36.702 20.5275 0.89167 5.810943 -1.731873
2008-06-16 08:16:18 51°9.973 2°36.676 20.529 1.252584 8.382162 -1.697049
2008-06-16 08:16:23 51°9.968 2°36.649 20.5493 0.511017 3.20192 -1.697049
2008-06-16 08:16:28 51°9.963 2°36.622 20.4936 0.511017 3.20192 -1.697049
2008-06-16 08:16:33 51°9.958 2°36.596 20.5536 1.447113 9.799806 -1.697049
2008-06-16 08:16:38 51°9.954 2°36.569 20.5222 0.698685 4.472766 -1.697049
2008-06-16 08:16:43 51°9.949 2°36.542 20.5497 0.993188 6.525509 -1.697049
2008-06-16 08:16:48 51°9.945 2°36.516 20.5266 0.974635 6.393988 -1.697049
2008-06-16 08:16:53 51°9.939 2°36.489 20.5528 0.810882 5.247004 -1.697049
2008-06-16 08:16:58 51°9.936 2°36.462 20.5353 0.810882 5.247004 -1.697049
2008-06-16 08:17:03 51°9.93 2°36.435 20.5479 1.044418 6.888571 -1.697049
2008-06-16 08:17:08 51°9.926 2°36.408 20.5732 0.614422 3.89794 -1.697049
2008-06-16 08:17:13 51°9.921 2°36.382 20.5413 1.007 6.623297 -1.697049
2008-06-16 08:17:18 51°9.917 2°36.355 20.567 0.766886 4.942331 -1.697049
2008-06-16 08:17:22 51°9.913 2°36.334 20.5444 0.766886 4.942331 -1.697049
2008-06-16 08:17:28 51°9.908 2°36.302 20.5672 1.388726 9.372052 -1.731873
2008-06-16 08:17:33 51°9.904 2°36.275 20.5576 0.89672 5.846667 -1.697049
2008-06-16 08:17:38 51°9.899 2°36.248 20.5656 0.875903 5.700894 -1.697049
2008-06-16 08:17:43 51°9.895 2°36.221 20.5519 0.883323 5.753147 -1.697049
2008-06-16 08:17:48 51°9.891 2°36.194 20.5831 0.978243 6.420946 -1.697049
2008-06-16 08:17:53 51°9.887 2°36.167 20.5624 0.660981 4.215497 -1.697049
2008-06-16 08:17:58 51°9.882 2°36.141 20.5739 0.660981 4.215497 -1.697049
2008-06-16 08:18:03 51°9.878 2°36.113 20.5913 0.958041 6.278326 -1.697049
2008-06-16 08:18:08 51°9.874 2°36.086 20.5652 1.063695 7.027331 -1.697049
2008-06-16 08:18:13 51°9.87 2°36.06 20.5873 0.871369 5.669509 -1.697049
2008-06-16 08:18:18 51°9.866 2°36.033 20.5479 0.970512 6.366095 -1.697049
2008-06-16 08:18:23 51°9.861 2°36.006 20.5832 0.631212 4.012398 -1.697049
2008-06-16 08:18:28 51°9.857 2°35.979 20.5507 0.631212 4.012398 -1.697049
2008-06-16 08:18:33 51°9.852 2°35.953 17.3305 0.996589 6.550332 -1.697049
2008-06-16 08:18:38 51°9.847 2°35.926 17.1001 1.70199 11.707168 -1.488105
2008-06-16 08:18:43 51°9.842 2°35.9 17.0465 1.703848 11.720833 -1.627401
2008-06-16 08:18:48 51°9.838 2°35.873 17.0183 2.812081 20.288849 -0.791624
2008-06-16 08:18:53 51°9.833 2°35.846 16.9893 3.474205 25.404317 2.551485
2008-06-16 08:18:58 51°9.829 2°35.819 16.9724 3.474205 25.404317 2.551485
2008-06-16 08:19:03 51°9.825 2°35.792 16.9597 3.569311 26.017561 4.466808
2008-06-16 08:19:08 51°9.821 2°35.765 16.9542 3.753994 27.73643 4.188216
2008-06-16 08:19:13 51°9.817 2°35.738 16.9565 4.030325 30.3561 3.770327
2008-06-16 08:19:18 51°9.813 2°35.711 16.9518 4.078975 30.940045 3.770327
2008-06-16 08:19:22 51°9.81 2°35.69 16.9457 4.078975 30.940045 3.770327
2008-06-16 08:19:28 51°9.806 2°35.657 16.9499 4.129288 31.482966 3.839975
2008-06-16 08:19:33 51°9.802 2°35.63 16.9515 4.126385 31.564374 4.04892
2008-06-16 08:19:38 51°9.798 2°35.603 16.9561 4.131054 31.655735 4.083744
2008-06-16 08:19:43 51°9.795 2°35.576 16.9571 4.116842 31.576994 4.04892
2008-06-16 08:19:48 51°9.791 2°35.549 16.9536 4.116947 31.604322 4.22304
2008-06-16 08:19:53 51°9.787 2°35.522 16.9541 4.111345 31.575253 4.22304
2008-06-16 08:19:58 51°9.783 2°35.495 16.9541 4.111345 31.575253 4.22304
2008-06-16 08:20:03 51°9.779 2°35.468 16.9531 4.118503 31.647304 4.153392
2008-06-16 08:20:08 51°9.774 2°35.442 16.953 4.122238 31.684374 4.118568
2008-06-16 08:20:13 51°9.769 2°35.415 16.9642 4.121201 31.676113 4.22304
2008-06-16 08:20:18 51°9.765 2°35.388 16.9626 4.13562 31.80612 4.153392
2008-06-16 08:20:23 51°9.76 2°35.362 16.971 4.137073 31.822395 4.083744
2008-06-16 08:20:28 51°9.755 2°35.335 16.9666 4.137073 31.822395 4.083744
2008-06-16 08:20:33 51°9.751 2°35.309 16.9693 4.128151 31.747117 3.944447
2008-06-16 08:20:38 51°9.745 2°35.283 16.9783 4.132716 31.789453 3.770327
2008-06-16 08:20:43 51°9.741 2°35.256 16.9768 4.123898 31.715068 3.631031
2008-06-16 08:20:48 51°9.736 2°35.23 16.9676 4.132716 31.790088 3.735503
2008-06-16 08:20:53 51°9.732 2°35.203 16.9688 4.136347 31.819341 3.770327
2008-06-16 08:20:58 51°9.728 2°35.176 16.9918 4.136347 31.819341 3.770327
2008-06-16 08:21:03 51°9.724 2°35.149 17.0024 4.137695 31.830279 3.839975
2008-06-16 08:21:08 51°9.721 2°35.122 16.9917 4.135206 31.807642 4.04892
2008-06-16 08:21:13 51°9.718 2°35.095 16.9894 4.122031 31.692719 3.944447
2008-06-16 08:21:18 51°9.714 2°35.068 16.9823 4.115288 31.6349 4.083744
2008-06-16 08:21:22 51°9.711 2°35.047 16.9874 4.131575 31.775853 4.292688
2008-06-16 08:21:28 51°9.706 2°35.014 17.0101 4.131575 31.775853 4.292688
2008-06-16 08:21:33 51°9.703 2°34.987 17.0094 4.119956 31.673662 4.39716
2008-06-16 08:21:38 51°9.699 2°34.961 17.0062 4.129396 31.748919 4.257864
2008-06-16 08:21:43 51°9.696 2°34.934 17.0151 4.129915 31.751466 4.118568
2008-06-16 08:21:47 51°9.693 2°34.912 17.0135 4.135102 31.79786 4.083744
2008-06-16 08:21:53 51°9.687 2°34.881 16.9944 4.133131 31.780951 3.839975
2008-06-16 08:21:58 51°9.684 2°34.853 16.947 4.133131 31.780951 3.839975
2008-06-16 08:22:03 51°9.68 2°34.827 16.9063 4.126076 31.71665 4.153392
2008-06-16 08:22:08 51°9.676 2°34.8 16.901 4.137488 31.809437 4.466808
2008-06-16 08:22:13 51°9.672 2°34.773 16.9054 4.139666 31.825582 4.501632
2008-06-16 08:22:18 51°9.668 2°34.746 16.9427 4.142675 31.848844 4.954345
2008-06-16 08:22:23 51°9.664 2°34.719 16.8889 4.142363 31.848717 5.720474
2008-06-16 08:22:28 51°9.661 2°34.693 16.8485 4.142363 31.848717 5.720474
2008-06-16 08:22:33 51°9.657 2°34.666 16.8327 4.139251 31.837275 6.695548
2008-06-16 08:22:38 51°9.653 2°34.639 16.8213 4.135517 31.831296 7.113436
2008-06-16 08:22:43 51°9.649 2°34.612 16.8143 4.132198 31.819331 6.939316
2008-06-16 08:22:48 51°9.645 2°34.586 16.8143 4.131575 31.81844 6.904492
2008-06-16 08:22:53 51°9.641 2°34.559 16.8211 4.128878 31.797813 7.91439
2008-06-16 08:22:58 51°9.636 2°34.533 16.8418 4.128878 31.797813 7.91439
2008-06-16 08:23:03 51°9.631 2°34.507 16.851 4.134273 31.862651 8.750167
2008-06-16 08:23:08 51°9.626 2°34.481 16.856 4.132821 31.871862 9.063583
2008-06-16 08:23:13 51°9.621 2°34.455 16.8496 4.134377 31.902512 9.20288
2008-06-16 08:23:18 51°9.616 2°34.429 16.8353 4.132821 31.899991 9.133231
2008-06-16 08:23:23 51°9.61 2°34.403 16.8327 4.133236 31.908045 8.889463
2008-06-16 08:23:28 51°9.605 2°34.377 16.8409 4.133236 31.908045 8.889463
2008-06-16 08:23:33 51°9.6 2°34.351 16.8469 4.13417 31.914165 8.854639
2008-06-16 08:23:38 51°9.595 2°34.325 16.8586 4.133548 31.902404 8.750167
2008-06-16 08:23:43 51°9.59 2°34.299 16.8886 4.13334 31.89614 9.028759
2008-06-16 08:23:48 51°9.585 2°34.273 16.9077 4.142884 31.979605 9.307352
2008-06-16 08:23:53 51°9.581 2°34.247 16.9352 4.140291 31.960473 9.411824
2008-06-16 08:23:58 51°9.576 2°34.221 16.945 4.140291 31.960473 9.411824
2008-06-16 08:24:02 51°9.572 2°34.2 16.9452 4.137282 31.935204 9.237704
2008-06-16 08:24:08 51°9.568 2°34.172 16.9515 4.143196 31.983568 8.959111
2008-06-16 08:24:13 51°9.564 2°34.15 16.9606 4.141017 31.957113 8.43675
2008-06-16 08:24:18 51°9.561 2°34.13 16.9613 4.148797 32.013847 7.635797
2008-06-16 08:24:23 51°9.557 2°34.111 16.9687 4.147863 31.989139 6.730372
2008-06-16 08:24:28 51°9.554 2°34.093 17.0005 4.147863 31.989139 6.730372
2008-06-16 08:24:33 51°9.551 2°34.075 17.0163 4.132094 31.836272 6.556251
2008-06-16 08:24:38 51°9.548 2°34.06 17.0224 4.149627 31.975496 6.660724
2008-06-16 08:24:43 51°9.545 2°34.046 17.022 4.153984 32.004637 6.765196
2008-06-16 08:24:48 51°9.541 2°34.034 17.0198 4.153984 31.998237 6.6259
2008-06-16 08:24:53 51°9.537 2°34.022 17.0168 4.152012 31.97554 6.277659
2008-06-16 08:24:58 51°9.534 2°34.012 17.0147 4.152012 31.97554 6.277659
2008-06-16 08:25:03 51°9.53 2°34.002 17.0126 4.152012 31.964036 5.824946
2008-06-16 08:25:08 51°9.526 2°33.994 17.0101 4.153776 31.966409 5.302586
2008-06-16 08:25:13 51°9.522 2°33.986 17.003 4.159066 32.000981 4.884697
2008-06-16 08:25:18 51°9.518 2°33.978 16.9978 4.158963 31.99434 4.57128
2008-06-16 08:25:23 51°9.513 2°33.972 16.9929 4.160415 32.004892 4.327512
2008-06-16 08:25:28 51°9.508 2°33.967 16.9831 4.160415 32.004892 4.327512
2008-06-16 08:25:33 51°9.503 2°33.962 16.9682 4.162283 32.020284 4.153392
2008-06-16 08:25:38 51°9.498 2°33.959 16.9635 4.160104 32.00222 3.979271
2008-06-16 08:25:43 51°9.494 2°33.957 16.9533 4.157718 31.983654 3.770327
2008-06-16 08:25:48 51°9.49 2°33.954 16.9451 4.159274 32.000846 3.735503
2008-06-16 08:25:53 51°9.486 2°33.953 16.9419 4.159067 32.002898 3.909623
2008-06-16 08:25:58 51°9.482 2°33.95 16.9427 4.159067 32.002898 3.909623
2008-06-16 08:26:02 51°9.479 2°33.95 16.949 4.157718 31.997069 4.22304
2008-06-16 08:26:08 51°9.475 2°33.948 16.9517 4.157822 32.004992 4.431984
2008-06-16 08:26:13 51°9.472 2°33.948 16.9461 4.159171 32.024895 4.606104
2008-06-16 08:26:18 51°9.47 2°33.948 16.934 4.156577 32.009649 4.675753
2008-06-16 08:26:23 51°9.468 2°33.947 16.9246 4.150145 31.960771 4.466808
2008-06-16 08:26:28 51°9.467 2°33.947 16.9229 4.150145 31.960771 4.466808
2008-06-16 08:26:33 51°9.465 2°33.947 16.9239 4.151597 31.977089 4.22304
2008-06-16 08:26:38 51°9.465 2°33.946 16.9163 4.153984 31.998237 3.979271
2008-06-16 08:26:43 51°9.465 2°33.946 16.9143 4.154295 32.000912 4.153392
2008-06-16 08:26:48 51°9.464 2°33.945 16.9105 4.155332 32.01239 4.57128
2008-06-16 08:26:53 51°9.464 2°33.945 16.9105 4.155851 32.022614 4.745401
2008-06-16 08:26:58 51°9.463 2°33.944 16.9113 4.155851 32.022614 4.745401
2008-06-16 08:27:03 51°9.463 2°33.944 16.9087 4.153465 32.00658 4.815049
2008-06-16 08:27:08 51°9.463 2°33.944 16.9071 4.152324 32.00125 5.163289
2008-06-16 08:27:13 51°9.462 2°33.943 16.9059 4.153465 32.014908 5.302586
2008-06-16 08:27:18 51°9.462 2°33.942 16.9051 4.14444 31.939849 5.546354
2008-06-16 08:27:23 51°9.462 2°33.942 16.9014 4.14527 31.949543 5.650826
2008-06-16 08:27:28 51°9.462 2°33.941 16.8989 4.14527 31.949543 5.650826
2008-06-16 08:27:33 51°9.462 2°33.941 16.8985 4.15471 32.032669 5.790122
2008-06-16 08:27:38 51°9.461 2°33.941 16.8964 4.149938 31.993537 6.103539
2008-06-16 08:27:43 51°9.461 2°33.94 16.892 4.154918 32.037661 6.208011
2008-06-16 08:27:48 51°9.461 2°33.939 16.8905 4.155852 32.046978 6.416955
2008-06-16 08:27:53 51°9.461 2°33.939 16.8907 4.154607 32.03819 6.730372
2008-06-16 08:27:58 51°9.461 2°33.939 16.892 4.154607 32.03819 6.730372
2008-06-16 08:28:03 51°9.46 2°33.938 16.8936 4.153984 32.034758 6.904492
2008-06-16 08:28:08 51°9.46 2°33.938 16.9005 4.151183 32.011937 6.97414
2008-06-16 08:28:13 51°9.46 2°33.938 16.9025 4.151598 32.018073 7.183084
2008-06-16 08:28:18 51°9.46 2°33.937 16.901 4.150976 32.01464 7.14826
2008-06-16 08:28:23 51°9.46 2°33.937 16.9012 4.150561 32.012993 7.078612
2008-06-16 08:28:28 51°9.46 2°33.936 16.9028 4.150561 32.012993 7.078612
2008-06-16 08:28:33 51°9.46 2°33.936 16.9038 4.14859 31.99667 7.078612
2008-06-16 08:28:38 51°9.459 2°33.935 16.9045 4.155644 32.056747 6.97414
2008-06-16 08:28:43 51°9.459 2°33.935 16.9059 4.159275 32.085435 6.904492
2008-06-16 08:28:48 51°9.459 2°33.935 16.9066 4.15886 32.080577 6.765196
2008-06-16 08:28:53 51°9.459 2°33.934 16.9074 4.159068 32.081721 6.834844
2008-06-16 08:28:58 51°9.459 2°33.934 16.907 4.159068 32.081721 6.834844
2008-06-16 08:29:03 51°9.459 2°33.933 16.9066 4.154918 32.04536 6.869668
2008-06-16 08:29:08 51°9.459 2°33.933 16.9096 4.158549 32.075971 6.765196